Observation data for Lomax on 08/06/2020      Previous  Date       Current Mesonet Observations  Soil Data  Daily Summary Page  Observations in Plain Language
KLO1 060500Z 17013KT 31/11 A2996 RMK A01 T03090112  RH  030%=      5-min Rain = 0
KLO1 060501Z 17012KT 31/11 A2996 RMK A01 T03090112  RH  030%=      5-min Rain = 0
KLO1 060502Z 17011KT 31/11 A2996 RMK A01 T03090112  RH  030%=      5-min Rain = 0
KLO1 060503Z 17012KT 31/11 A2996 RMK A01 T03090113  RH  030%=      5-min Rain = 0
KLO1 060504Z 17013KT 31/11 A2996 RMK A01 T03080113  RH  030%=      5-min Rain = 0
KLO1 060505Z 17012KT 31/11 A2996 RMK A01 T03080113  RH  030%=      5-min Rain = 0
KLO1 060506Z 17014KT 31/11 A2996 RMK A01 T03080113  RH  030%=      5-min Rain = 0
KLO1 060507Z 17012KT 31/11 A2996 RMK A01 T03080113  RH  030%=      5-min Rain = 0
KLO1 060508Z 17014KT 31/11 A2996 RMK A01 T03080114  RH  030%=      5-min Rain = 0
KLO1 060509Z 17012KT 31/11 A2996 RMK A01 T03080114  RH  030%=      5-min Rain = 0
KLO1 060510Z 17013KT 31/11 A2996 RMK A01 T03080114  RH  030%=      5-min Rain = 0
KLO1 060511Z 17012KT 31/11 A2996 RMK A01 T03070114  RH  030%=      5-min Rain = 0
KLO1 060512Z 17013KT 31/12 A2996 RMK A01 T03070115  RH  031%=      5-min Rain = 0
KLO1 060513Z 17012KT 31/12 A2996 RMK A01 T03070115  RH  031%=      5-min Rain = 0
KLO1 060514Z 17014KT 31/12 A2996 RMK A01 T03060115  RH  031%=      5-min Rain = 0
KLO1 060515Z 17014KT 31/12 A2996 RMK A01 T03070116  RH  031%=      5-min Rain = 0
KLO1 060516Z 17014KT 31/12 A2997 RMK A01 T03060115  RH  031%=      5-min Rain = 0
KLO1 060517Z 17013KT 31/12 A2997 RMK A01 T03070115  RH  031%=      5-min Rain = 0
KLO1 060518Z 17012G17KT 31/12 A2997 RMK A01 T03060115  RH  031%=      5-min Rain = 0
KLO1 060519Z 17011KT 31/12 A2997 RMK A01 T03060116  RH  031%=      5-min Rain = 0
KLO1 060520Z 17012KT 31/12 A2997 RMK A01 T03060116  RH  031%=      5-min Rain = 0
KLO1 060521Z 17011KT 31/12 A2997 RMK A01 T03060116  RH  031%=      5-min Rain = 0
KLO1 060522Z 17010G16KT 31/12 A2997 RMK A01 T03050116  RH  031%=      5-min Rain = 0
KLO1 060523Z 17014KT 31/12 A2997 RMK A01 T03050117  RH  031%=      5-min Rain = 0
KLO1 060524Z 18013KT 31/12 A2997 RMK A01 T03050117  RH  031%=      5-min Rain = 0
KLO1 060525Z 17013KT 31/12 A2997 RMK A01 T03050118  RH  032%=      5-min Rain = 0
KLO1 060526Z 18015KT 31/12 A2997 RMK A01 T03050117  RH  032%=      5-min Rain = 0
KLO1 060527Z 18011KT 31/12 A2997 RMK A01 T03050118  RH  032%=      5-min Rain = 0
KLO1 060528Z 18014KT 31/12 A2997 RMK A01 T03050118  RH  032%=      5-min Rain = 0
KLO1 060529Z 17016KT 31/12 A2997 RMK A01 T03050119  RH  032%=      5-min Rain = 0
KLO1 060530Z 18013KT 31/12 A2997 RMK A01 T03050119  RH  032%=      5-min Rain = 0
KLO1 060531Z 18015KT 31/12 A2997 RMK A01 T03050119  RH  032%=      5-min Rain = 0
KLO1 060532Z 18014KT 31/12 A2997 RMK A01 T03050120  RH  032%=      5-min Rain = 0
KLO1 060533Z 18013KT 31/12 A2997 RMK A01 T03050120  RH  032%=      5-min Rain = 0
KLO1 060534Z 18013KT 30/12 A2997 RMK A01 T03040120  RH  032%=      5-min Rain = 0
KLO1 060535Z 18013KT 30/12 A2997 RMK A01 T03040121  RH  032%=      5-min Rain = 0
KLO1 060536Z 18014KT 30/12 A2997 RMK A01 T03040121  RH  032%=      5-min Rain = 0
KLO1 060537Z 18013KT 30/12 A2997 RMK A01 T03030121  RH  033%=      5-min Rain = 0
KLO1 060538Z 17014KT 30/12 A2997 RMK A01 T03030121  RH  033%=      5-min Rain = 0
KLO1 060539Z 18014KT 30/12 A2997 RMK A01 T03030121  RH  033%=      5-min Rain = 0
KLO1 060540Z 17017KT 30/12 A2997 RMK A01 T03030121  RH  033%=      5-min Rain = 0
KLO1 060541Z 17012G17KT 30/12 A2997 RMK A01 T03030121  RH  033%=      5-min Rain = 0
KLO1 060542Z 18013KT 30/12 A2997 RMK A01 T03030121  RH  033%=      5-min Rain = 0
KLO1 060543Z 18012KT 30/12 A2997 RMK A01 T03030122  RH  033%=      5-min Rain = 0
KLO1 060544Z 17013KT 30/12 A2997 RMK A01 T03020122  RH  033%=      5-min Rain = 0
KLO1 060545Z 18014KT 30/12 A2997 RMK A01 T03020121  RH  033%=      5-min Rain = 0
KLO1 060546Z 18014G19KT 30/12 A2997 RMK A01 T03020122  RH  033%=      5-min Rain = 0
KLO1 060547Z 18014G19KT 30/12 A2997 RMK A01 T03020122  RH  033%=      5-min Rain = 0
KLO1 060548Z 17013KT 30/12 A2997 RMK A01 T03020122  RH  033%=      5-min Rain = 0
KLO1 060549Z 18013KT 30/12 A2997 RMK A01 T03020122  RH  033%=      5-min Rain = 0
KLO1 060550Z 18013KT 30/12 A2997 RMK A01 T03020122  RH  033%=      5-min Rain = 0
KLO1 060551Z 18011KT 30/12 A2997 RMK A01 T03020123  RH  033%=      5-min Rain = 0
KLO1 060552Z 18012KT 30/12 A2997 RMK A01 T03010123  RH  033%=      5-min Rain = 0
KLO1 060553Z 18012KT 30/12 A2997 RMK A01 T03010123  RH  033%=      5-min Rain = 0
KLO1 060554Z 18013KT 30/12 A2997 RMK A01 T03000123  RH  034%=      5-min Rain = 0
KLO1 060555Z 18012KT 30/12 A2997 RMK A01 T03000123  RH  034%=      5-min Rain = 0
KLO1 060556Z 18012KT 30/12 A2997 RMK A01 T03000123  RH  034%=      5-min Rain = 0
KLO1 060557Z 18013KT 30/12 A2998 RMK A01 T03000123  RH  034%=      5-min Rain = 0
KLO1 060558Z 18013KT 30/12 A2998 RMK A01 T03000123  RH  034%=      5-min Rain = 0
KLO1 060559Z 19011KT 30/12 A2998 RMK A01 T03000123  RH  034%=      5-min Rain = 0
KLO1 060600Z 18010KT 30/12 A2998 RMK A01 T03000123  RH  034%=      5-min Rain = 0
KLO1 060601Z 19013KT 30/12 A2998 RMK A01 T02990123  RH  034%=      5-min Rain = 0
KLO1 060602Z 19013KT 30/12 A2998 RMK A01 T02990123  RH  034%=      5-min Rain = 0
KLO1 060603Z 18012KT 30/12 A2998 RMK A01 T02990124  RH  034%=      5-min Rain = 0
KLO1 060604Z 19011KT 30/12 A2998 RMK A01 T02980123  RH  034%=      5-min Rain = 0
KLO1 060605Z 18010KT 30/12 A2998 RMK A01 T02980123  RH  034%=      5-min Rain = 0
KLO1 060606Z 19010KT 30/12 A2998 RMK A01 T02980123  RH  034%=      5-min Rain = 0
KLO1 060607Z 19010KT 30/12 A2998 RMK A01 T02970124  RH  034%=      5-min Rain = 0
KLO1 060608Z 19011KT 30/12 A2998 RMK A01 T02970124  RH  035%=      5-min Rain = 0
KLO1 060609Z 18013KT 30/12 A2998 RMK A01 T02960123  RH  035%=      5-min Rain = 0
KLO1 060610Z 18011KT 30/12 A2998 RMK A01 T02960124  RH  035%=      5-min Rain = 0
KLO1 060611Z 18011KT 30/12 A2998 RMK A01 T02960124  RH  035%=      5-min Rain = 0
KLO1 060612Z 18012KT 30/12 A2998 RMK A01 T02960124  RH  035%=      5-min Rain = 0
KLO1 060613Z 18013KT 30/12 A2998 RMK A01 T02960124  RH  035%=      5-min Rain = 0
KLO1 060614Z 18011KT 30/12 A2998 RMK A01 T02960124  RH  035%=      5-min Rain = 0
KLO1 060615Z 18011KT 30/12 A2998 RMK A01 T02960124  RH  035%=      5-min Rain = 0
KLO1 060616Z 18013KT 30/12 A2998 RMK A01 T02950124  RH  035%=      5-min Rain = 0
KLO1 060617Z 18012KT 30/12 A2998 RMK A01 T02950124  RH  035%=      5-min Rain = 0
KLO1 060618Z 18012KT 30/13 A2998 RMK A01 T02950125  RH  035%=      5-min Rain = 0
KLO1 060619Z 18013KT 30/13 A2998 RMK A01 T02950125  RH  035%=      5-min Rain = 0
KLO1 060620Z 18012KT 30/12 A2998 RMK A01 T02950124  RH  035%=      5-min Rain = 0
KLO1 060621Z 18011KT 30/12 A2998 RMK A01 T02950124  RH  035%=      5-min Rain = 0
KLO1 060622Z 18011KT 29/13 A2998 RMK A01 T02940125  RH  035%=      5-min Rain = 0
KLO1 060623Z 18011KT 29/13 A2998 RMK A01 T02940125  RH  035%=      5-min Rain = 0
KLO1 060624Z 18014KT 29/13 A2998 RMK A01 T02940125  RH  035%=      5-min Rain = 0
KLO1 060625Z 18014KT 29/13 A2998 RMK A01 T02940125  RH  035%=      5-min Rain = 0
KLO1 060626Z 18012KT 30/12 A2998 RMK A01 T02950124  RH  035%=      5-min Rain = 0
KLO1 060627Z 19012G17KT 30/13 A2998 RMK A01 T02950125  RH  035%=      5-min Rain = 0
KLO1 060628Z 19013KT 30/13 A2998 RMK A01 T02950125  RH  035%=      5-min Rain = 0
KLO1 060629Z 18011KT 30/13 A2998 RMK A01 T02950125  RH  035%=      5-min Rain = 0
KLO1 060630Z 18011KT 30/13 A2999 RMK A01 T02950125  RH  035%=      5-min Rain = 0
KLO1 060631Z 19010KT 29/13 A2999 RMK A01 T02940125  RH  035%=      5-min Rain = 0
KLO1 060632Z 18011KT 29/13 A2999 RMK A01 T02930125  RH  035%=      5-min Rain = 0
KLO1 060633Z 18011KT 29/13 A2999 RMK A01 T02930125  RH  036%=      5-min Rain = 0
KLO1 060634Z 18012KT 29/13 A2998 RMK A01 T02930125  RH  036%=      5-min Rain = 0
KLO1 060635Z 18011KT 29/13 A2998 RMK A01 T02930125  RH  035%=      5-min Rain = 0
KLO1 060636Z 18011KT 29/13 A2999 RMK A01 T02930125  RH  035%=      5-min Rain = 0
KLO1 060637Z 18012KT 29/13 A2998 RMK A01 T02930125  RH  036%=      5-min Rain = 0
KLO1 060638Z 18011KT 29/13 A2998 RMK A01 T02920126  RH  036%=      5-min Rain = 0
KLO1 060639Z 18013KT 29/13 A2998 RMK A01 T02920126  RH  036%=      5-min Rain = 0
KLO1 060640Z 18013KT 29/13 A2998 RMK A01 T02910125  RH  036%=      5-min Rain = 0
KLO1 060641Z 18011KT 29/13 A2998 RMK A01 T02910125  RH  036%=      5-min Rain = 0
KLO1 060642Z 18011KT 29/13 A2998 RMK A01 T02910125  RH  036%=      5-min Rain = 0
KLO1 060643Z 18010KT 29/13 A2998 RMK A01 T02910126  RH  036%=      5-min Rain = 0
KLO1 060644Z 18011KT 29/13 A2998 RMK A01 T02900126  RH  036%=      5-min Rain = 0
KLO1 060645Z 18009KT 29/13 A2998 RMK A01 T02900126  RH  036%=      5-min Rain = 0
KLO1 060646Z 18010KT 29/13 A2998 RMK A01 T02890126  RH  036%=      5-min Rain = 0
KLO1 060647Z 18009KT 29/13 A2998 RMK A01 T02900126  RH  037%=      5-min Rain = 0
KLO1 060648Z 18010KT 29/13 A2998 RMK A01 T02890126  RH  037%=      5-min Rain = 0
KLO1 060649Z 18010KT 29/13 A2998 RMK A01 T02890126  RH  037%=      5-min Rain = 0
KLO1 060650Z 18011KT 29/13 A2998 RMK A01 T02890126  RH  037%=      5-min Rain = 0
KLO1 060651Z 18011KT 29/13 A2998 RMK A01 T02880126  RH  037%=      5-min Rain = 0
KLO1 060652Z 18009KT 29/13 A2998 RMK A01 T02880127  RH  037%=      5-min Rain = 0
KLO1 060653Z 18010KT 29/13 A2998 RMK A01 T02880127  RH  037%=      5-min Rain = 0
KLO1 060654Z 18011KT 29/13 A2998 RMK A01 T02880127  RH  037%=      5-min Rain = 0
KLO1 060655Z 18009KT 29/13 A2998 RMK A01 T02880127  RH  037%=      5-min Rain = 0
KLO1 060656Z 18010KT 29/13 A2998 RMK A01 T02870126  RH  037%=      5-min Rain = 0
KLO1 060657Z 18011KT 29/13 A2998 RMK A01 T02880127  RH  037%=      5-min Rain = 0
KLO1 060658Z 18010KT 29/13 A2998 RMK A01 T02880127  RH  037%=      5-min Rain = 0
KLO1 060659Z 18011KT 29/13 A2998 RMK A01 T02880127  RH  037%=      5-min Rain = 0
KLO1 060700Z 18013G18KT 29/13 A2998 RMK A01 T02880127  RH  037%=      5-min Rain = 0
KLO1 060701Z 18011KT 29/13 A2998 RMK A01 T02880127  RH  037%=      5-min Rain = 0
KLO1 060702Z 17011KT 29/13 A2998 RMK A01 T02880127  RH  037%=      5-min Rain = 0
KLO1 060703Z 18011KT 29/13 A2998 RMK A01 T02880127  RH  037%=      5-min Rain = 0
KLO1 060704Z 17012KT 29/13 A2998 RMK A01 T02880127  RH  037%=      5-min Rain = 0
KLO1 060705Z 17013KT 29/13 A2998 RMK A01 T02880126  RH  037%=      5-min Rain = 0
KLO1 060706Z 17010KT 29/13 A2998 RMK A01 T02880126  RH  037%=      5-min Rain = 0
KLO1 060707Z 17013KT 29/13 A2998 RMK A01 T02880127  RH  037%=      5-min Rain = 0
KLO1 060708Z 17010KT 29/13 A2998 RMK A01 T02880127  RH  037%=      5-min Rain = 0
KLO1 060709Z 17012KT 29/13 A2998 RMK A01 T02880128  RH  037%=      5-min Rain = 0
KLO1 060710Z 17012KT 29/13 A2998 RMK A01 T02880128  RH  037%=      5-min Rain = 0
KLO1 060711Z 18013KT 29/13 A2998 RMK A01 T02880127  RH  037%=      5-min Rain = 0
KLO1 060712Z 17012KT 29/13 A2998 RMK A01 T02880127  RH  037%=      5-min Rain = 0
KLO1 060713Z 17013KT 29/13 A2998 RMK A01 T02880127  RH  037%=      5-min Rain = 0
KLO1 060714Z 17012KT 29/13 A2998 RMK A01 T02880128  RH  037%=      5-min Rain = 0
KLO1 060715Z 17012KT 29/13 A2998 RMK A01 T02880128  RH  037%=      5-min Rain = 0
KLO1 060716Z 17013KT 29/13 A2998 RMK A01 T02880128  RH  037%=      5-min Rain = 0
KLO1 060717Z 17011KT 29/13 A2998 RMK A01 T02880128  RH  037%=      5-min Rain = 0
KLO1 060718Z 17012KT 29/13 A2998 RMK A01 T02870129  RH  038%=      5-min Rain = 0
KLO1 060719Z 18011KT 29/13 A2998 RMK A01 T02870129  RH  038%=      5-min Rain = 0
KLO1 060720Z 17014KT 29/13 A2998 RMK A01 T02870129  RH  038%=      5-min Rain = 0
KLO1 060721Z 17013KT 29/13 A2998 RMK A01 T02870129  RH  038%=      5-min Rain = 0
KLO1 060722Z 17012KT 29/13 A2998 RMK A01 T02870129  RH  038%=      5-min Rain = 0
KLO1 060723Z 17013KT 29/13 A2998 RMK A01 T02870129  RH  038%=      5-min Rain = 0
KLO1 060724Z 17013KT 29/13 A2998 RMK A01 T02870129  RH  038%=      5-min Rain = 0
KLO1 060725Z 17012KT 29/13 A2998 RMK A01 T02870130  RH  038%=      5-min Rain = 0
KLO1 060726Z 18011KT 29/13 A2998 RMK A01 T02870130  RH  038%=      5-min Rain = 0
KLO1 060727Z 18013KT 29/13 A2998 RMK A01 T02870130  RH  038%=      5-min Rain = 0
KLO1 060728Z 18012G17KT 29/13 A2998 RMK A01 T02860130  RH  038%=      5-min Rain = 0
KLO1 060729Z 17013KT 29/13 A2998 RMK A01 T02860130  RH  038%=      5-min Rain = 0
KLO1 060730Z 18010KT 29/13 A2998 RMK A01 T02860131  RH  038%=      5-min Rain = 0
KLO1 060731Z 18011KT 29/13 A2998 RMK A01 T02860131  RH  038%=      5-min Rain = 0
KLO1 060732Z 18012KT 29/13 A2998 RMK A01 T02860131  RH  039%=      5-min Rain = 0
KLO1 060733Z 18013KT 29/13 A2998 RMK A01 T02860131  RH  039%=      5-min Rain = 0
KLO1 060734Z 18012KT 29/13 A2998 RMK A01 T02850132  RH  039%=      5-min Rain = 0
KLO1 060735Z 18011KT 29/13 A2998 RMK A01 T02850132  RH  039%=      5-min Rain = 0
KLO1 060736Z 18011KT 29/13 A2998 RMK A01 T02850132  RH  039%=      5-min Rain = 0
KLO1 060737Z 18011KT 28/13 A2998 RMK A01 T02840132  RH  039%=      5-min Rain = 0
KLO1 060738Z 18013KT 28/13 A2998 RMK A01 T02840132  RH  039%=      5-min Rain = 0
KLO1 060739Z 18012KT 28/13 A2998 RMK A01 T02840133  RH  039%=      5-min Rain = 0
KLO1 060740Z 18011KT 28/13 A2998 RMK A01 T02840133  RH  039%=      5-min Rain = 0
KLO1 060741Z 18012KT 28/13 A2998 RMK A01 T02840133  RH  040%=      5-min Rain = 0
KLO1 060742Z 18011KT 28/13 A2998 RMK A01 T02840134  RH  040%=      5-min Rain = 0
KLO1 060743Z 18013KT 28/13 A2998 RMK A01 T02840134  RH  040%=      5-min Rain = 0
KLO1 060744Z 18012KT 28/13 A2998 RMK A01 T02830134  RH  040%=      5-min Rain = 0
KLO1 060745Z 18013KT 28/13 A2998 RMK A01 T02830134  RH  040%=      5-min Rain = 0
KLO1 060746Z 18011KT 28/13 A2998 RMK A01 T02830134  RH  040%=      5-min Rain = 0
KLO1 060747Z 18012KT 28/14 A2998 RMK A01 T02830135  RH  040%=      5-min Rain = 0
KLO1 060748Z 18010KT 28/14 A2998 RMK A01 T02830135  RH  040%=      5-min Rain = 0
KLO1 060749Z 18011KT 28/14 A2998 RMK A01 T02820135  RH  040%=      5-min Rain = 0
KLO1 060750Z 17012KT 28/14 A2998 RMK A01 T02820135  RH  040%=      5-min Rain = 0
KLO1 060751Z 17013KT 28/14 A2998 RMK A01 T02820135  RH  040%=      5-min Rain = 0
KLO1 060752Z 18012KT 28/14 A2998 RMK A01 T02820135  RH  040%=      5-min Rain = 0
KLO1 060753Z 18011KT 28/14 A2998 RMK A01 T02820135  RH  040%=      5-min Rain = 0
KLO1 060754Z 18011KT 28/14 A2998 RMK A01 T02820135  RH  040%=      5-min Rain = 0
KLO1 060755Z 18011KT 28/14 A2998 RMK A01 T02820135  RH  041%=      5-min Rain = 0
KLO1 060756Z 18013KT 28/14 A2998 RMK A01 T02820135  RH  041%=      5-min Rain = 0
KLO1 060757Z 17013KT 28/14 A2998 RMK A01 T02820135  RH  041%=      5-min Rain = 0
KLO1 060758Z 18011KT 28/14 A2998 RMK A01 T02820135  RH  040%=      5-min Rain = 0
KLO1 060759Z 18010KT 28/14 A2998 RMK A01 T02820136  RH  041%=      5-min Rain = 0
KLO1 060800Z 17011KT 28/14 A2998 RMK A01 T02820136  RH  041%=      5-min Rain = 0
KLO1 060801Z 18011KT 28/14 A2998 RMK A01 T02810136  RH  041%=      5-min Rain = 0
KLO1 060802Z 18011KT 28/14 A2998 RMK A01 T02810136  RH  041%=      5-min Rain = 0
KLO1 060803Z 18011KT 28/14 A2998 RMK A01 T02810136  RH  041%=      5-min Rain = 0
KLO1 060804Z 18011KT 28/14 A2998 RMK A01 T02810136  RH  041%=      5-min Rain = 0
KLO1 060805Z 18010KT 28/14 A2998 RMK A01 T02810136  RH  041%=      5-min Rain = 0
KLO1 060806Z 18010KT 28/14 A2998 RMK A01 T02810137  RH  041%=      5-min Rain = 0
KLO1 060807Z 18009KT 28/14 A2998 RMK A01 T02800137  RH  041%=      5-min Rain = 0
KLO1 060808Z 18010KT 28/14 A2999 RMK A01 T02790137  RH  042%=      5-min Rain = 0
KLO1 060809Z 18011KT 28/14 A2999 RMK A01 T02790137  RH  042%=      5-min Rain = 0
KLO1 060810Z 17011KT 28/14 A2999 RMK A01 T02790137  RH  042%=      5-min Rain = 0
KLO1 060811Z 17010KT 28/14 A2999 RMK A01 T02790137  RH  042%=      5-min Rain = 0
KLO1 060812Z 18013KT 28/14 A2998 RMK A01 T02790137  RH  042%=      5-min Rain = 0
KLO1 060813Z 17011KT 28/14 A2998 RMK A01 T02790137  RH  042%=      5-min Rain = 0
KLO1 060814Z 18010KT 28/14 A2998 RMK A01 T02790137  RH  042%=      5-min Rain = 0
KLO1 060815Z 17012G17KT 28/14 A2998 RMK A01 T02790137  RH  042%=      5-min Rain = 0
KLO1 060816Z 18012KT 28/14 A2998 RMK A01 T02790137  RH  042%=      5-min Rain = 0
KLO1 060817Z 18010KT 28/14 A2998 RMK A01 T02790137  RH  042%=      5-min Rain = 0
KLO1 060818Z 17011KT 28/14 A2998 RMK A01 T02790137  RH  042%=      5-min Rain = 0
KLO1 060819Z 17012KT 28/14 A2999 RMK A01 T02780137  RH  042%=      5-min Rain = 0
KLO1 060820Z 18011KT 28/14 A2999 RMK A01 T02780138  RH  042%=      5-min Rain = 0
KLO1 060821Z 17011KT 28/14 A2999 RMK A01 T02780138  RH  042%=      5-min Rain = 0
KLO1 060822Z 17010KT 28/14 A2999 RMK A01 T02780138  RH  042%=      5-min Rain = 0
KLO1 060823Z 17011KT 28/14 A2999 RMK A01 T02780138  RH  042%=      5-min Rain = 0
KLO1 060824Z 17011KT 28/14 A2999 RMK A01 T02780138  RH  042%=      5-min Rain = 0
KLO1 060825Z 17013KT 28/14 A2999 RMK A01 T02770138  RH  042%=      5-min Rain = 0
KLO1 060826Z 17011KT 28/14 A2999 RMK A01 T02770138  RH  042%=      5-min Rain = 0
KLO1 060827Z 17011KT 28/14 A2999 RMK A01 T02780138  RH  042%=      5-min Rain = 0
KLO1 060828Z 17011KT 28/14 A2999 RMK A01 T02780138  RH  042%=      5-min Rain = 0
KLO1 060829Z 17013KT 28/14 A2999 RMK A01 T02770138  RH  042%=      5-min Rain = 0
KLO1 060830Z 17010KT 28/14 A2999 RMK A01 T02770138  RH  042%=      5-min Rain = 0
KLO1 060831Z 17010KT 28/14 A2999 RMK A01 T02770138  RH  042%=      5-min Rain = 0
KLO1 060832Z 17009KT 28/14 A2999 RMK A01 T02770138  RH  043%=      5-min Rain = 0
KLO1 060833Z 17011KT 28/14 A2999 RMK A01 T02760138  RH  043%=      5-min Rain = 0
KLO1 060834Z 17010KT 28/14 A2999 RMK A01 T02760139  RH  043%=      5-min Rain = 0
KLO1 060835Z 17010KT 28/14 A2999 RMK A01 T02760139  RH  043%=      5-min Rain = 0
KLO1 060836Z 17012KT 28/14 A2999 RMK A01 T02760139  RH  043%=      5-min Rain = 0
KLO1 060837Z 17011KT 28/14 A2999 RMK A01 T02760139  RH  043%=      5-min Rain = 0
KLO1 060838Z 18010KT 28/14 A2999 RMK A01 T02760139  RH  043%=      5-min Rain = 0
KLO1 060839Z 17010KT 28/14 A2999 RMK A01 T02760139  RH  043%=      5-min Rain = 0
KLO1 060840Z 18010KT 28/14 A2999 RMK A01 T02750139  RH  043%=      5-min Rain = 0
KLO1 060841Z 17011KT 27/14 A2999 RMK A01 T02740139  RH  043%=      5-min Rain = 0
KLO1 060842Z 18009KT 27/14 A2999 RMK A01 T02740139  RH  043%=      5-min Rain = 0
KLO1 060843Z 18010KT 27/14 A2999 RMK A01 T02740139  RH  044%=      5-min Rain = 0
KLO1 060844Z 17010KT 27/14 A2999 RMK A01 T02740140  RH  044%=      5-min Rain = 0
KLO1 060845Z 17011KT 27/14 A2999 RMK A01 T02740140  RH  044%=      5-min Rain = 0
KLO1 060846Z 18011KT 27/14 A2999 RMK A01 T02730140  RH  044%=      5-min Rain = 0
KLO1 060847Z 17012KT 27/14 A2999 RMK A01 T02730140  RH  044%=      5-min Rain = 0
KLO1 060848Z 17011KT 27/14 A2999 RMK A01 T02730140  RH  044%=      5-min Rain = 0
KLO1 060849Z 18009KT 27/14 A2999 RMK A01 T02730140  RH  044%=      5-min Rain = 0
KLO1 060850Z 17011KT 27/14 A2999 RMK A01 T02730140  RH  044%=      5-min Rain = 0
KLO1 060851Z 17011KT 27/14 A2999 RMK A01 T02730140  RH  044%=      5-min Rain = 0
KLO1 060852Z 17011KT 27/14 A2999 RMK A01 T02730140  RH  044%=      5-min Rain = 0
KLO1 060853Z 18012KT 27/14 A2999 RMK A01 T02720140  RH  044%=      5-min Rain = 0
KLO1 060854Z 18010KT 27/14 A2999 RMK A01 T02720140  RH  044%=      5-min Rain = 0
KLO1 060855Z 18010KT 27/14 A2999 RMK A01 T02730141  RH  044%=      5-min Rain = 0
KLO1 060856Z 18010KT 27/14 A2999 RMK A01 T02730141  RH  044%=      5-min Rain = 0
KLO1 060857Z 18010KT 27/14 A2999 RMK A01 T02720141  RH  045%=      5-min Rain = 0
KLO1 060858Z 17010KT 27/14 A2999 RMK A01 T02720141  RH  045%=      5-min Rain = 0
KLO1 060859Z 18009KT 27/14 A2999 RMK A01 T02710141  RH  045%=      5-min Rain = 0
KLO1 060900Z 18010KT 27/14 A2999 RMK A01 T02710141  RH  045%=      5-min Rain = 0
KLO1 060901Z 18011KT 27/14 A2999 RMK A01 T02700141  RH  045%=      5-min Rain = 0
KLO1 060902Z 18010KT 27/14 A2999 RMK A01 T02700142  RH  045%=      5-min Rain = 0
KLO1 060903Z 17010KT 27/14 A2999 RMK A01 T02700141  RH  045%=      5-min Rain = 0
KLO1 060904Z 17011KT 27/14 A2999 RMK A01 T02710142  RH  045%=      5-min Rain = 0
KLO1 060905Z 18009KT 27/14 A2999 RMK A01 T02710142  RH  045%=      5-min Rain = 0
KLO1 060906Z 17011KT 27/14 A2999 RMK A01 T02710142  RH  045%=      5-min Rain = 0
KLO1 060907Z 17009KT 27/14 A2999 RMK A01 T02700142  RH  045%=      5-min Rain = 0
KLO1 060908Z 17010KT 27/14 A2999 RMK A01 T02700142  RH  045%=      5-min Rain = 0
KLO1 060909Z 17011KT 27/14 A2999 RMK A01 T02700142  RH  045%=      5-min Rain = 0
KLO1 060910Z 17010KT 27/14 A2999 RMK A01 T02700142  RH  045%=      5-min Rain = 0
KLO1 060911Z 17008KT 27/14 A2999 RMK A01 T02700142  RH  045%=      5-min Rain = 0
KLO1 060912Z 17011KT 27/14 A2999 RMK A01 T02700142  RH  045%=      5-min Rain = 0
KLO1 060913Z 17009KT 27/14 A2999 RMK A01 T02700142  RH  046%=      5-min Rain = 0
KLO1 060914Z 17010KT 27/14 A2999 RMK A01 T02690142  RH  046%=      5-min Rain = 0
KLO1 060915Z 17010KT 27/14 A2999 RMK A01 T02690142  RH  046%=      5-min Rain = 0
KLO1 060916Z 17009KT 27/14 A2999 RMK A01 T02690142  RH  046%=      5-min Rain = 0
KLO1 060917Z 17010KT 27/14 A2999 RMK A01 T02690142  RH  046%=      5-min Rain = 0
KLO1 060918Z 17009KT 27/14 A2999 RMK A01 T02680142  RH  046%=      5-min Rain = 0
KLO1 060919Z 17009KT 27/14 A2999 RMK A01 T02680143  RH  046%=      5-min Rain = 0
KLO1 060920Z 17011KT 27/14 A2999 RMK A01 T02680143  RH  046%=      5-min Rain = 0
KLO1 060921Z 17008KT 27/14 A2999 RMK A01 T02680143  RH  046%=      5-min Rain = 0
KLO1 060922Z 17010KT 27/14 A2999 RMK A01 T02680143  RH  046%=      5-min Rain = 0
KLO1 060923Z 17009KT 27/14 A2999 RMK A01 T02680143  RH  046%=      5-min Rain = 0
KLO1 060924Z 18009KT 27/14 A2999 RMK A01 T02680143  RH  046%=      5-min Rain = 0
KLO1 060925Z 17009KT 27/14 A2999 RMK A01 T02670143  RH  046%=      5-min Rain = 0
KLO1 060926Z 18010KT 27/14 A2999 RMK A01 T02670143  RH  047%=      5-min Rain = 0
KLO1 060927Z 18011KT 27/14 A2999 RMK A01 T02670143  RH  047%=      5-min Rain = 0
KLO1 060928Z 18011KT 27/14 A2999 RMK A01 T02670144  RH  047%=      5-min Rain = 0
KLO1 060929Z 17009KT 27/14 A2999 RMK A01 T02670144  RH  047%=      5-min Rain = 0
KLO1 060930Z 17011KT 27/14 A2999 RMK A01 T02670144  RH  047%=      5-min Rain = 0
KLO1 060931Z 18010KT 27/14 A2999 RMK A01 T02670144  RH  047%=      5-min Rain = 0
KLO1 060932Z 18008KT 27/14 A2999 RMK A01 T02670144  RH  047%=      5-min Rain = 0
KLO1 060933Z 17009KT 27/14 A2999 RMK A01 T02660144  RH  047%=      5-min Rain = 0
KLO1 060934Z 17008KT 27/14 A2999 RMK A01 T02660144  RH  047%=      5-min Rain = 0
KLO1 060935Z 17009KT 27/14 A2999 RMK A01 T02650144  RH  047%=      5-min Rain = 0
KLO1 060936Z 17010KT 27/14 A2999 RMK A01 T02650144  RH  047%=      5-min Rain = 0
KLO1 060937Z 17009KT 27/14 A2999 RMK A01 T02650144  RH  047%=      5-min Rain = 0
KLO1 060938Z 17008KT 27/14 A2999 RMK A01 T02650144  RH  047%=      5-min Rain = 0
KLO1 060939Z 17009KT 26/14 A2999 RMK A01 T02640144  RH  048%=      5-min Rain = 0
KLO1 060940Z 17010KT 26/14 A2999 RMK A01 T02640144  RH  048%=      5-min Rain = 0
KLO1 060941Z 17010KT 26/14 A2999 RMK A01 T02640144  RH  048%=      5-min Rain = 0
KLO1 060942Z 17009KT 26/14 A2999 RMK A01 T02640144  RH  048%=      5-min Rain = 0
KLO1 060943Z 17010KT 26/14 A2999 RMK A01 T02640144  RH  048%=      5-min Rain = 0
KLO1 060944Z 17011KT 26/15 A2999 RMK A01 T02640145  RH  048%=      5-min Rain = 0
KLO1 060945Z 18009KT 26/15 A2999 RMK A01 T02640145  RH  048%=      5-min Rain = 0
KLO1 060946Z 18009KT 26/15 A2999 RMK A01 T02640145  RH  048%=      5-min Rain = 0
KLO1 060947Z 18010KT 26/15 A2999 RMK A01 T02640145  RH  048%=      5-min Rain = 0
KLO1 060948Z 17010KT 26/15 A2999 RMK A01 T02640145  RH  048%=      5-min Rain = 0
KLO1 060949Z 17011KT 26/15 A2999 RMK A01 T02630145  RH  048%=      5-min Rain = 0
KLO1 060950Z 17008KT 26/15 A2999 RMK A01 T02630145  RH  048%=      5-min Rain = 0
KLO1 060951Z 17009KT 26/15 A2999 RMK A01 T02640145  RH  048%=      5-min Rain = 0
KLO1 060952Z 17010KT 26/15 A2999 RMK A01 T02630145  RH  048%=      5-min Rain = 0
KLO1 060953Z 18009KT 26/15 A2999 RMK A01 T02630146  RH  048%=      5-min Rain = 0
KLO1 060954Z 17010KT 26/15 A2998 RMK A01 T02630146  RH  048%=      5-min Rain = 0
KLO1 060955Z 17008KT 26/15 A2998 RMK A01 T02630146  RH  048%=      5-min Rain = 0
KLO1 060956Z 17010KT 26/15 A2998 RMK A01 T02620146  RH  049%=      5-min Rain = 0
KLO1 060957Z 17012KT 26/15 A2998 RMK A01 T02620146  RH  049%=      5-min Rain = 0
KLO1 060958Z 17009KT 26/15 A2998 RMK A01 T02630146  RH  049%=      5-min Rain = 0
KLO1 060959Z 17012KT 26/15 A2998 RMK A01 T02630146  RH  049%=      5-min Rain = 0
KLO1 061000Z 17010KT 26/15 A2998 RMK A01 T02620146  RH  049%=      5-min Rain = 0
KLO1 061001Z 17011KT 26/15 A2998 RMK A01 T02630146  RH  049%=      5-min Rain = 0
KLO1 061002Z 17008KT 26/15 A2998 RMK A01 T02620146  RH  049%=      5-min Rain = 0
KLO1 061003Z 17011KT 26/15 A2998 RMK A01 T02620146  RH  049%=      5-min Rain = 0
KLO1 061004Z 17009KT 26/15 A2998 RMK A01 T02620146  RH  049%=      5-min Rain = 0
KLO1 061005Z 17010KT 26/15 A2998 RMK A01 T02620147  RH  049%=      5-min Rain = 0
KLO1 061006Z 17011KT 26/15 A2998 RMK A01 T02620146  RH  049%=      5-min Rain = 0
KLO1 061007Z 17010KT 26/15 A2998 RMK A01 T02620147  RH  049%=      5-min Rain = 0
KLO1 061008Z 17010KT 26/15 A2998 RMK A01 T02620147  RH  049%=      5-min Rain = 0
KLO1 061009Z 17011KT 26/15 A2998 RMK A01 T02620147  RH  049%=      5-min Rain = 0
KLO1 061010Z 17011KT 26/15 A2998 RMK A01 T02620147  RH  049%=      5-min Rain = 0
KLO1 061011Z 17009KT 26/15 A2998 RMK A01 T02620147  RH  049%=      5-min Rain = 0
KLO1 061012Z 17010KT 26/15 A2999 RMK A01 T02620148  RH  049%=      5-min Rain = 0
KLO1 061013Z 17010KT 26/15 A2999 RMK A01 T02620148  RH  049%=      5-min Rain = 0
KLO1 061014Z 17012KT 26/15 A2999 RMK A01 T02620148  RH  049%=      5-min Rain = 0
KLO1 061015Z 17009KT 26/15 A2999 RMK A01 T02610148  RH  049%=      5-min Rain = 0
KLO1 061016Z 17010KT 26/15 A2999 RMK A01 T02620148  RH  049%=      5-min Rain = 0
KLO1 061017Z 17010KT 26/15 A2999 RMK A01 T02610148  RH  050%=      5-min Rain = 0
KLO1 061018Z 17010KT 26/15 A2999 RMK A01 T02610148  RH  050%=      5-min Rain = 0
KLO1 061019Z 17009KT 26/15 A2999 RMK A01 T02610148  RH  050%=      5-min Rain = 0
KLO1 061020Z 17007KT 26/15 A2999 RMK A01 T02610148  RH  050%=      5-min Rain = 0
KLO1 061021Z 17010KT 26/15 A2999 RMK A01 T02600148  RH  050%=      5-min Rain = 0
KLO1 061022Z 17009KT 26/15 A2999 RMK A01 T02600148  RH  050%=      5-min Rain = 0
KLO1 061023Z 17011KT 26/15 A2999 RMK A01 T02600149  RH  050%=      5-min Rain = 0
KLO1 061024Z 17010KT 26/15 A2999 RMK A01 T02600148  RH  050%=      5-min Rain = 0
KLO1 061025Z 17010KT 26/15 A2999 RMK A01 T02600148  RH  050%=      5-min Rain = 0
KLO1 061026Z 16010KT 26/15 A2999 RMK A01 T02600149  RH  050%=      5-min Rain = 0
KLO1 061027Z 17011KT 26/15 A2999 RMK A01 T02600149  RH  050%=      5-min Rain = 0
KLO1 061028Z 17010KT 26/15 A2999 RMK A01 T02610149  RH  050%=      5-min Rain = 0
KLO1 061029Z 17009KT 26/15 A2999 RMK A01 T02600149  RH  050%=      5-min Rain = 0
KLO1 061030Z 17009KT 26/15 A2999 RMK A01 T02600149  RH  050%=      5-min Rain = 0
KLO1 061031Z 17010KT 26/15 A2999 RMK A01 T02600149  RH  050%=      5-min Rain = 0
KLO1 061032Z 17010KT 26/15 A2999 RMK A01 T02600149  RH  051%=      5-min Rain = 0
KLO1 061033Z 17009KT 26/15 A2999 RMK A01 T02590149  RH  051%=      5-min Rain = 0
KLO1 061034Z 17010KT 26/15 A2999 RMK A01 T02590149  RH  051%=      5-min Rain = 0
KLO1 061035Z 17009KT 26/15 A2999 RMK A01 T02590150  RH  051%=      5-min Rain = 0
KLO1 061036Z 17009KT 26/15 A2999 RMK A01 T02590150  RH  051%=      5-min Rain = 0
KLO1 061037Z 17009KT 26/15 A2999 RMK A01 T02580149  RH  051%=      5-min Rain = 0
KLO1 061038Z 17009KT 26/15 A2999 RMK A01 T02580149  RH  051%=      5-min Rain = 0
KLO1 061039Z 17010KT 26/15 A2999 RMK A01 T02580150  RH  051%=      5-min Rain = 0
KLO1 061040Z 17009KT 26/15 A2999 RMK A01 T02580150  RH  051%=      5-min Rain = 0
KLO1 061041Z 17009KT 26/15 A2999 RMK A01 T02580150  RH  051%=      5-min Rain = 0
KLO1 061042Z 17009KT 26/15 A2999 RMK A01 T02580150  RH  051%=      5-min Rain = 0
KLO1 061043Z 18008KT 26/15 A2999 RMK A01 T02580150  RH  051%=      5-min Rain = 0
KLO1 061044Z 17008KT 26/15 A2999 RMK A01 T02580150  RH  051%=      5-min Rain = 0
KLO1 061045Z 17008KT 26/15 A2999 RMK A01 T02570150  RH  052%=      5-min Rain = 0
KLO1 061046Z 17009KT 26/15 A2999 RMK A01 T02570150  RH  052%=      5-min Rain = 0
KLO1 061047Z 17010KT 26/15 A2999 RMK A01 T02570150  RH  052%=      5-min Rain = 0
KLO1 061048Z 17008KT 26/15 A2999 RMK A01 T02570151  RH  052%=      5-min Rain = 0
KLO1 061049Z 17010KT 26/15 A2999 RMK A01 T02570150  RH  052%=      5-min Rain = 0
KLO1 061050Z 17009KT 26/15 A2999 RMK A01 T02570151  RH  052%=      5-min Rain = 0
KLO1 061051Z 17009KT 26/15 A2999 RMK A01 T02570151  RH  052%=      5-min Rain = 0
KLO1 061052Z 17010KT 26/15 A2999 RMK A01 T02570151  RH  052%=      5-min Rain = 0
KLO1 061053Z 17010KT 26/15 A2999 RMK A01 T02560151  RH  052%=      5-min Rain = 0
KLO1 061054Z 17008KT 26/15 A2999 RMK A01 T02560151  RH  052%=      5-min Rain = 0
KLO1 061055Z 17009KT 26/15 A2999 RMK A01 T02570151  RH  052%=      5-min Rain = 0
KLO1 061056Z 17009KT 26/15 A2999 RMK A01 T02560151  RH  052%=      5-min Rain = 0
KLO1 061057Z 17010KT 26/15 A2999 RMK A01 T02560151  RH  052%=      5-min Rain = 0
KLO1 061058Z 17009KT 26/15 A2999 RMK A01 T02560151  RH  052%=      5-min Rain = 0
KLO1 061059Z 16008KT 26/15 A2999 RMK A01 T02550151  RH  052%=      5-min Rain = 0
KLO1 061100Z 16009KT 26/15 A2999 RMK A01 T02550151  RH  053%=      5-min Rain = 0
KLO1 061101Z 16009KT 26/15 A2999 RMK A01 T02550151  RH  053%=      5-min Rain = 0
KLO1 061102Z 16009KT 25/15 A2999 RMK A01 T02540151  RH  053%=      5-min Rain = 0
KLO1 061103Z 16008KT 25/15 A2999 RMK A01 T02540151  RH  053%=      5-min Rain = 0
KLO1 061104Z 16008KT 25/15 A2999 RMK A01 T02540151  RH  053%=      5-min Rain = 0
KLO1 061105Z 16009KT 25/15 A2999 RMK A01 T02540152  RH  053%=      5-min Rain = 0
KLO1 061106Z 16010KT 25/15 A2999 RMK A01 T02540152  RH  053%=      5-min Rain = 0
KLO1 061107Z 16010KT 25/15 A2999 RMK A01 T02540152  RH  053%=      5-min Rain = 0
KLO1 061108Z 16008KT 25/15 A2999 RMK A01 T02540152  RH  053%=      5-min Rain = 0
KLO1 061109Z 16009KT 25/15 A2999 RMK A01 T02540152  RH  053%=      5-min Rain = 0
KLO1 061110Z 16009KT 25/15 A2999 RMK A01 T02530152  RH  053%=      5-min Rain = 0
KLO1 061111Z 16009KT 25/15 A2999 RMK A01 T02530152  RH  053%=      5-min Rain = 0
KLO1 061112Z 16009KT 25/15 A2999 RMK A01 T02530152  RH  054%=      5-min Rain = 0
KLO1 061113Z 16008KT 25/15 A2999 RMK A01 T02530152  RH  054%=      5-min Rain = 0
KLO1 061114Z 16009KT 25/15 A2999 RMK A01 T02520152  RH  054%=      5-min Rain = 0
KLO1 061115Z 16008KT 25/15 A2999 RMK A01 T02520153  RH  054%=      5-min Rain = 0
KLO1 061116Z 16010KT 25/15 A2999 RMK A01 T02520153  RH  054%=      5-min Rain = 0
KLO1 061117Z 16010KT 25/15 A2999 RMK A01 T02520152  RH  054%=      5-min Rain = 0
KLO1 061118Z 16009KT 25/15 A2999 RMK A01 T02520152  RH  054%=      5-min Rain = 0
KLO1 061119Z 16010KT 25/15 A2999 RMK A01 T02520152  RH  054%=      5-min Rain = 0
KLO1 061120Z 16009KT 25/15 A2999 RMK A01 T02520153  RH  054%=      5-min Rain = 0
KLO1 061121Z 16010KT 25/15 A2999 RMK A01 T02520153  RH  054%=      5-min Rain = 0
KLO1 061122Z 16011KT 25/15 A2999 RMK A01 T02510153  RH  054%=      5-min Rain = 0
KLO1 061123Z 16009KT 25/15 A2999 RMK A01 T02520153  RH  054%=      5-min Rain = 0
KLO1 061124Z 16010KT 25/15 A2999 RMK A01 T02520153  RH  054%=      5-min Rain = 0
KLO1 061125Z 16009KT 25/15 A2999 RMK A01 T02520153  RH  054%=      5-min Rain = 0
KLO1 061126Z 17010KT 25/15 A2999 RMK A01 T02510153  RH  054%=      5-min Rain = 0
KLO1 061127Z 17009KT 25/15 A2999 RMK A01 T02520153  RH  054%=      5-min Rain = 0
KLO1 061128Z 17009KT 25/15 A2999 RMK A01 T02510153  RH  054%=      5-min Rain = 0
KLO1 061129Z 17009KT 25/15 A2999 RMK A01 T02510153  RH  055%=      5-min Rain = 0
KLO1 061130Z 17008KT 25/15 A2999 RMK A01 T02510153  RH  054%=      5-min Rain = 0
KLO1 061131Z 17009KT 25/15 A2999 RMK A01 T02510153  RH  055%=      5-min Rain = 0
KLO1 061132Z 16009KT 25/15 A2999 RMK A01 T02510153  RH  055%=      5-min Rain = 0
KLO1 061133Z 16009KT 25/15 A2999 RMK A01 T02510154  RH  055%=      5-min Rain = 0
KLO1 061134Z 16009KT 25/15 A2999 RMK A01 T02510153  RH  055%=      5-min Rain = 0
KLO1 061135Z 16010KT 25/15 A2999 RMK A01 T02510154  RH  055%=      5-min Rain = 0
KLO1 061136Z 16009KT 25/15 A2999 RMK A01 T02510154  RH  055%=      5-min Rain = 0
KLO1 061137Z 16009KT 25/15 A30 RMK A01 T02500153  RH  055%=      5-min Rain = 0
KLO1 061138Z 16009KT 25/15 A30 RMK A01 T02500153  RH  055%=      5-min Rain = 0
KLO1 061139Z 16009KT 25/15 A30 RMK A01 T02500154  RH  055%=      5-min Rain = 0
KLO1 061140Z 16009KT 25/15 A30 RMK A01 T02500154  RH  055%=      5-min Rain = 0
KLO1 061141Z 16008KT 25/15 A30 RMK A01 T02500154  RH  055%=      5-min Rain = 0
KLO1 061142Z 16009KT 25/15 A30 RMK A01 T02490154  RH  055%=      5-min Rain = 0
KLO1 061143Z 16008KT 25/15 A30 RMK A01 T02490154  RH  056%=      5-min Rain = 0
KLO1 061144Z 16009KT 25/15 A30 RMK A01 T02480154  RH  056%=      5-min Rain = 0
KLO1 061145Z 15009KT 25/15 A30 RMK A01 T02480154  RH  056%=      5-min Rain = 0
KLO1 061146Z 15008KT 25/15 A30 RMK A01 T02480154  RH  056%=      5-min Rain = 0
KLO1 061147Z 15008KT 25/15 A30 RMK A01 T02470154  RH  056%=      5-min Rain = 0
KLO1 061148Z 15008KT 25/16 A30 RMK A01 T02470155  RH  056%=      5-min Rain = 0
KLO1 061149Z 15008KT 25/16 A30 RMK A01 T02470155  RH  057%=      5-min Rain = 0
KLO1 061150Z 15008KT 25/15 A30 RMK A01 T02460154  RH  057%=      5-min Rain = 0
KLO1 061151Z 15009KT 25/15 A30 RMK A01 T02460154  RH  057%=      5-min Rain = 0
KLO1 061152Z 15008KT 25/16 A30 RMK A01 T02460155  RH  057%=      5-min Rain = 0
KLO1 061153Z 15009KT 25/15 A30 RMK A01 T02450154  RH  057%=      5-min Rain = 0
KLO1 061154Z 15008KT 25/15 A30 RMK A01 T02450154  RH  057%=      5-min Rain = 0
KLO1 061155Z 16008KT 24/15 A30 RMK A01 T02440154  RH  057%=      5-min Rain = 0
KLO1 061156Z 15008KT 24/15 A30 RMK A01 T02440154  RH  057%=      5-min Rain = 0
KLO1 061157Z 15007KT 24/15 A30 RMK A01 T02440154  RH  057%=      5-min Rain = 0
KLO1 061158Z 15008KT 24/15 A30 RMK A01 T02440154  RH  057%=      5-min Rain = 0
KLO1 061159Z 15008KT 24/15 A30 RMK A01 T02440154  RH  057%=      5-min Rain = 0
KLO1 061200Z 15008KT 24/15 A30 RMK A01 T02430154  RH  058%=      5-min Rain = 0
KLO1 061201Z 15009KT 24/15 A30 RMK A01 T02430154  RH  058%=      5-min Rain = 0
KLO1 061202Z 15008KT 24/16 A30 RMK A01 T02430155  RH  058%=      5-min Rain = 0
KLO1 061203Z 15008KT 24/16 A30 RMK A01 T02430155  RH  058%=      5-min Rain = 0
KLO1 061204Z 15007KT 24/15 A30 RMK A01 T02430154  RH  058%=      5-min Rain = 0
KLO1 061205Z 15008KT 24/15 A30 RMK A01 T02420154  RH  058%=      5-min Rain = 0
KLO1 061206Z 15008KT 24/15 A30 RMK A01 T02420154  RH  058%=      5-min Rain = 0
KLO1 061207Z 15007KT 24/15 A30 RMK A01 T02420154  RH  058%=      5-min Rain = 0
KLO1 061208Z 15007KT 24/15 A30 RMK A01 T02420154  RH  058%=      5-min Rain = 0
KLO1 061209Z 15007KT 24/15 A30 RMK A01 T02410154  RH  058%=      5-min Rain = 0
KLO1 061210Z 15008KT 24/15 A30 RMK A01 T02410154  RH  058%=      5-min Rain = 0
KLO1 061211Z 15008KT 24/15 A30 RMK A01 T02410154  RH  058%=      5-min Rain = 0
KLO1 061212Z 15007KT 24/15 A30 RMK A01 T02410154  RH  058%=      5-min Rain = 0
KLO1 061213Z 15008KT 24/15 A30 RMK A01 T02410154  RH  058%=      5-min Rain = 0
KLO1 061214Z 15009KT 24/16 A30 RMK A01 T02410155  RH  059%=      5-min Rain = 0
KLO1 061215Z 15007KT 24/16 A30 RMK A01 T02410155  RH  059%=      5-min Rain = 0
KLO1 061216Z 15007KT 24/16 A30 RMK A01 T02410155  RH  059%=      5-min Rain = 0
KLO1 061217Z 15007KT 24/16 A30 RMK A01 T02400155  RH  059%=      5-min Rain = 0
KLO1 061218Z 15008KT 24/16 A30 RMK A01 T02400155  RH  059%=      5-min Rain = 0
KLO1 061219Z 15008KT 24/16 A30 RMK A01 T02390155  RH  059%=      5-min Rain = 0
KLO1 061220Z 15008KT 24/16 A30 RMK A01 T02400155  RH  059%=      5-min Rain = 0
KLO1 061221Z 15007KT 24/16 A30 RMK A01 T02390155  RH  059%=      5-min Rain = 0
KLO1 061222Z 15007KT 24/16 A30 RMK A01 T02390155  RH  059%=      5-min Rain = 0
KLO1 061223Z 15008KT 24/16 A30 RMK A01 T02400156  RH  059%=      5-min Rain = 0
KLO1 061224Z 15008KT 24/16 A30 RMK A01 T02400156  RH  059%=      5-min Rain = 0
KLO1 061225Z 15008KT 24/16 A30 RMK A01 T02390155  RH  059%=      5-min Rain = 0
KLO1 061226Z 16007KT 24/16 A30 RMK A01 T02390155  RH  059%=      5-min Rain = 0
KLO1 061227Z 15008KT 24/16 A30 RMK A01 T02390156  RH  059%=      5-min Rain = 0
KLO1 061228Z 15007KT 24/16 A30 RMK A01 T02390156  RH  060%=      5-min Rain = 0
KLO1 061229Z 16008KT 24/16 A30 RMK A01 T02390156  RH  060%=      5-min Rain = 0
KLO1 061230Z 16007KT 24/16 A3001 RMK A01 T02390156  RH  060%=      5-min Rain = 0
KLO1 061231Z 16008KT 24/16 A3001 RMK A01 T02390156  RH  060%=      5-min Rain = 0
KLO1 061232Z 16008KT 24/16 A3001 RMK A01 T02390156  RH  060%=      5-min Rain = 0
KLO1 061233Z 16008KT 24/16 A3001 RMK A01 T02390157  RH  060%=      5-min Rain = 0
KLO1 061234Z 16007KT 24/16 A3001 RMK A01 T02390157  RH  060%=      5-min Rain = 0
KLO1 061235Z 16008KT 24/16 A3001 RMK A01 T02390157  RH  060%=      5-min Rain = 0
KLO1 061236Z 16008KT 24/16 A3001 RMK A01 T02390157  RH  060%=      5-min Rain = 0
KLO1 061237Z 15008KT 24/16 A3001 RMK A01 T02400157  RH  060%=      5-min Rain = 0
KLO1 061238Z 16008KT 24/16 A3001 RMK A01 T02400158  RH  060%=      5-min Rain = 0
KLO1 061239Z 16008KT 24/16 A3001 RMK A01 T02400158  RH  060%=      5-min Rain = 0
KLO1 061240Z 16008KT 24/16 A3001 RMK A01 T02400158  RH  060%=      5-min Rain = 0
KLO1 061241Z 16008KT 24/16 A3001 RMK A01 T02400158  RH  060%=      5-min Rain = 0
KLO1 061242Z 16008KT 24/16 A3001 RMK A01 T02410159  RH  060%=      5-min Rain = 0
KLO1 061243Z 16008KT 24/16 A3001 RMK A01 T02400158  RH  060%=      5-min Rain = 0
KLO1 061244Z 16009KT 24/16 A3001 RMK A01 T02410159  RH  060%=      5-min Rain = 0
KLO1 061245Z 16008KT 24/16 A3001 RMK A01 T02410159  RH  060%=      5-min Rain = 0
KLO1 061246Z 16008KT 24/16 A3001 RMK A01 T02410159  RH  060%=      5-min Rain = 0
KLO1 061247Z 16008KT 24/16 A3001 RMK A01 T02420159  RH  060%=      5-min Rain = 0
KLO1 061248Z 17008KT 24/16 A3001 RMK A01 T02420159  RH  060%=      5-min Rain = 0
KLO1 061249Z 17009KT 24/16 A3001 RMK A01 T02430159  RH  060%=      5-min Rain = 0
KLO1 061250Z 17007KT 24/16 A3001 RMK A01 T02440159  RH  059%=      5-min Rain = 0
KLO1 061251Z 17007KT 24/16 A3001 RMK A01 T02440159  RH  059%=      5-min Rain = 0
KLO1 061252Z 17007KT 24/16 A3001 RMK A01 T02440160  RH  059%=      5-min Rain = 0
KLO1 061253Z 17009KT 25/16 A3001 RMK A01 T02450160  RH  059%=      5-min Rain = 0
KLO1 061254Z 16007KT 25/16 A3001 RMK A01 T02450159  RH  059%=      5-min Rain = 0
KLO1 061255Z 17007KT 25/16 A3001 RMK A01 T02450160  RH  059%=      5-min Rain = 0
KLO1 061256Z 16007KT 25/16 A3001 RMK A01 T02460160  RH  059%=      5-min Rain = 0
KLO1 061257Z 17008KT 25/16 A3001 RMK A01 T02460160  RH  059%=      5-min Rain = 0
KLO1 061258Z 17008KT 25/16 A3001 RMK A01 T02460160  RH  059%=      5-min Rain = 0
KLO1 061259Z 17007KT 25/16 A3001 RMK A01 T02460160  RH  059%=      5-min Rain = 0
KLO1 061300Z 17007KT 25/16 A3001 RMK A01 T02460160  RH  059%=      5-min Rain = 0
KLO1 061301Z 17007KT 25/16 A3001 RMK A01 T02470160  RH  058%=      5-min Rain = 0
KLO1 061302Z 17008KT 25/16 A3002 RMK A01 T02470161  RH  058%=      5-min Rain = 0
KLO1 061303Z 17008KT 25/16 A3002 RMK A01 T02480160  RH  058%=      5-min Rain = 0
KLO1 061304Z 17007KT 25/16 A3002 RMK A01 T02480160  RH  058%=      5-min Rain = 0
KLO1 061305Z 17007KT 25/16 A3002 RMK A01 T02490161  RH  058%=      5-min Rain = 0
KLO1 061306Z 17007KT 25/16 A3002 RMK A01 T02480161  RH  058%=      5-min Rain = 0
KLO1 061307Z 17007KT 25/16 A3002 RMK A01 T02490161  RH  058%=      5-min Rain = 0
KLO1 061308Z 17011KT 25/16 A3002 RMK A01 T02490160  RH  058%=      5-min Rain = 0
KLO1 061309Z 17007KT 25/16 A3002 RMK A01 T02500161  RH  058%=      5-min Rain = 0
KLO1 061310Z 17008KT 25/16 A3002 RMK A01 T02510162  RH  058%=      5-min Rain = 0
KLO1 061311Z 18008KT 25/16 A3002 RMK A01 T02510161  RH  057%=      5-min Rain = 0
KLO1 061312Z 17008KT 25/16 A3002 RMK A01 T02510161  RH  057%=      5-min Rain = 0
KLO1 061313Z 18007KT 25/16 A3002 RMK A01 T02510161  RH  057%=      5-min Rain = 0
KLO1 061314Z 18008KT 25/16 A3002 RMK A01 T02510162  RH  058%=      5-min Rain = 0
KLO1 061315Z 18010KT 25/16 A3002 RMK A01 T02520162  RH  057%=      5-min Rain = 0
KLO1 061316Z 18012KT 25/16 A3002 RMK A01 T02520162  RH  057%=      5-min Rain = 0
KLO1 061317Z 18010KT 25/16 A3002 RMK A01 T02520162  RH  057%=      5-min Rain = 0
KLO1 061318Z 18010KT 25/16 A3002 RMK A01 T02530163  RH  057%=      5-min Rain = 0
KLO1 061319Z 18011KT 25/16 A3002 RMK A01 T02530163  RH  057%=      5-min Rain = 0
KLO1 061320Z 19009KT 25/16 A3002 RMK A01 T02530163  RH  057%=      5-min Rain = 0
KLO1 061321Z 18009KT 25/16 A3002 RMK A01 T02540164  RH  057%=      5-min Rain = 0
KLO1 061322Z 18011KT 25/16 A3002 RMK A01 T02540164  RH  057%=      5-min Rain = 0
KLO1 061323Z 18012KT 25/16 A3002 RMK A01 T02540163  RH  057%=      5-min Rain = 0
KLO1 061324Z 18013KT 25/16 A3002 RMK A01 T02540163  RH  057%=      5-min Rain = 0
KLO1 061325Z 18012KT 25/16 A3002 RMK A01 T02540163  RH  057%=      5-min Rain = 0
KLO1 061326Z 18012KT 26/16 A3002 RMK A01 T02550163  RH  057%=      5-min Rain = 0
KLO1 061327Z 18011KT 25/16 A3002 RMK A01 T02540163  RH  057%=      5-min Rain = 0
KLO1 061328Z 18013KT 26/16 A3002 RMK A01 T02550164  RH  057%=      5-min Rain = 0
KLO1 061329Z 18011G17KT 26/17 A3002 RMK A01 T02550165  RH  057%=      5-min Rain = 0
KLO1 061330Z 19014KT 26/16 A3002 RMK A01 T02550164  RH  057%=      5-min Rain = 0
KLO1 061331Z 18014KT 26/16 A3002 RMK A01 T02560163  RH  057%=      5-min Rain = 0
KLO1 061332Z 18011KT 26/16 A3002 RMK A01 T02560164  RH  057%=      5-min Rain = 0
KLO1 061333Z 18013KT 26/16 A3002 RMK A01 T02560164  RH  057%=      5-min Rain = 0
KLO1 061334Z 18012KT 26/16 A3002 RMK A01 T02560164  RH  057%=      5-min Rain = 0
KLO1 061335Z 18015KT 26/16 A3002 RMK A01 T02560164  RH  057%=      5-min Rain = 0
KLO1 061336Z 18013KT 26/16 A3002 RMK A01 T02570164  RH  056%=      5-min Rain = 0
KLO1 061337Z 18014KT 26/17 A3002 RMK A01 T02570165  RH  057%=      5-min Rain = 0
KLO1 061338Z 18014KT 26/16 A3002 RMK A01 T02580164  RH  056%=      5-min Rain = 0
KLO1 061339Z 18016KT 26/17 A3002 RMK A01 T02580165  RH  056%=      5-min Rain = 0
KLO1 061340Z 19016KT 26/16 A3002 RMK A01 T02580164  RH  056%=      5-min Rain = 0
KLO1 061341Z 18013KT 26/16 A3002 RMK A01 T02580164  RH  056%=      5-min Rain = 0
KLO1 061342Z 18012KT 26/16 A3002 RMK A01 T02580164  RH  056%=      5-min Rain = 0
KLO1 061343Z 19011KT 26/17 A3002 RMK A01 T02580165  RH  056%=      5-min Rain = 0
KLO1 061344Z 19012KT 26/17 A3002 RMK A01 T02590166  RH  057%=      5-min Rain = 0
KLO1 061345Z 18012KT 26/17 A3002 RMK A01 T02590166  RH  056%=      5-min Rain = 0
KLO1 061346Z 19012KT 26/17 A3002 RMK A01 T02590166  RH  056%=      5-min Rain = 0
KLO1 061347Z 19014KT 26/17 A3002 RMK A01 T02590166  RH  056%=      5-min Rain = 0
KLO1 061348Z 18014KT 26/17 A3002 RMK A01 T02590165  RH  056%=      5-min Rain = 0
KLO1 061349Z 18014KT 26/17 A3002 RMK A01 T02600166  RH  056%=      5-min Rain = 0
KLO1 061350Z 18011KT 26/17 A3002 RMK A01 T02600166  RH  056%=      5-min Rain = 0
KLO1 061351Z 18012G17KT 26/17 A3002 RMK A01 T02610168  RH  056%=      5-min Rain = 0
KLO1 061352Z 18014KT 26/17 A3002 RMK A01 T02610166  RH  056%=      5-min Rain = 0
KLO1 061353Z 18014KT 26/17 A3002 RMK A01 T02610165  RH  056%=      5-min Rain = 0
KLO1 061354Z 18013KT 26/17 A3002 RMK A01 T02610165  RH  056%=      5-min Rain = 0
KLO1 061355Z 18014KT 26/17 A3002 RMK A01 T02610166  RH  056%=      5-min Rain = 0
KLO1 061356Z 18014KT 26/17 A3002 RMK A01 T02620166  RH  055%=      5-min Rain = 0
KLO1 061357Z 18014KT 26/17 A3002 RMK A01 T02610165  RH  055%=      5-min Rain = 0
KLO1 061358Z 19013KT 26/17 A3002 RMK A01 T02620166  RH  055%=      5-min Rain = 0
KLO1 061359Z 19013KT 26/17 A3002 RMK A01 T02620166  RH  055%=      5-min Rain = 0
KLO1 061400Z 19013KT 26/17 A3002 RMK A01 T02620165  RH  055%=      5-min Rain = 0
KLO1 061401Z 18010KT 26/17 A3002 RMK A01 T02630167  RH  056%=      5-min Rain = 0
KLO1 061402Z 18011KT 26/17 A3002 RMK A01 T02640169  RH  056%=      5-min Rain = 0
KLO1 061403Z 18010KT 26/17 A3002 RMK A01 T02640168  RH  055%=      5-min Rain = 0
KLO1 061404Z 19012KT 27/17 A3002 RMK A01 T02650168  RH  055%=      5-min Rain = 0
KLO1 061405Z 19013KT 27/17 A3002 RMK A01 T02650165  RH  054%=      5-min Rain = 0
KLO1 061406Z 19012KT 27/17 A3002 RMK A01 T02650167  RH  055%=      5-min Rain = 0
KLO1 061407Z 20014KT 27/17 A3002 RMK A01 T02660166  RH  054%=      5-min Rain = 0
KLO1 061408Z 19014KT 27/17 A3003 RMK A01 T02660165  RH  054%=      5-min Rain = 0
KLO1 061409Z 19016KT 27/17 A3003 RMK A01 T02660165  RH  054%=      5-min Rain = 0
KLO1 061410Z 18015KT 27/17 A3003 RMK A01 T02660165  RH  054%=      5-min Rain = 0
KLO1 061411Z 18016KT 27/17 A3003 RMK A01 T02660165  RH  054%=      5-min Rain = 0
KLO1 061412Z 18016KT 27/17 A3003 RMK A01 T02660165  RH  054%=      5-min Rain = 0
KLO1 061413Z 18014KT 27/16 A3003 RMK A01 T02660164  RH  054%=      5-min Rain = 0
KLO1 061414Z 18012KT 27/17 A3003 RMK A01 T02660165  RH  054%=      5-min Rain = 0
KLO1 061415Z 19014KT 27/17 A3003 RMK A01 T02670167  RH  054%=      5-min Rain = 0
KLO1 061416Z 19012G17KT 27/17 A3003 RMK A01 T02670165  RH  054%=      5-min Rain = 0
KLO1 061417Z 19012KT 27/17 A3003 RMK A01 T02680166  RH  054%=      5-min Rain = 0
KLO1 061418Z 18012KT 27/17 A3003 RMK A01 T02680168  RH  054%=      5-min Rain = 0
KLO1 061419Z 19014KT 27/17 A3003 RMK A01 T02690167  RH  054%=      5-min Rain = 0
KLO1 061420Z 19017KT 27/17 A3003 RMK A01 T02690166  RH  053%=      5-min Rain = 0
KLO1 061421Z 19017KT 27/16 A3003 RMK A01 T02690164  RH  053%=      5-min Rain = 0
KLO1 061422Z 19015KT 27/17 A3003 RMK A01 T02690165  RH  053%=      5-min Rain = 0
KLO1 061423Z 19013KT 27/17 A3003 RMK A01 T02690167  RH  053%=      5-min Rain = 0
KLO1 061424Z 19013KT 27/17 A3003 RMK A01 T02690167  RH  053%=      5-min Rain = 0
KLO1 061425Z 19015G20KT 27/17 A3003 RMK A01 T02700166  RH  053%=      5-min Rain = 0
KLO1 061426Z 19016KT 27/17 A3003 RMK A01 T02700165  RH  053%=      5-min Rain = 0
KLO1 061427Z 19011KT 27/17 A3003 RMK A01 T02700166  RH  053%=      5-min Rain = 0
KLO1 061428Z 18010KT 27/17 A3003 RMK A01 T02710168  RH  053%=      5-min Rain = 0
KLO1 061429Z 19013G18KT 27/17 A3003 RMK A01 T02730169  RH  053%=      5-min Rain = 0
KLO1 061430Z 19016KT 27/17 A3003 RMK A01 T02730166  RH  052%=      5-min Rain = 0
KLO1 061431Z 19017G22KT 27/16 A3003 RMK A01 T02730164  RH  051%=      5-min Rain = 0
KLO1 061432Z 19019KT 27/17 A3003 RMK A01 T02720165  RH  052%=      5-min Rain = 0
KLO1 061433Z 19015KT 27/17 A3003 RMK A01 T02720166  RH  052%=      5-min Rain = 0
KLO1 061434Z 20018KT 27/17 A3003 RMK A01 T02720165  RH  052%=      5-min Rain = 0
KLO1 061435Z 19017KT 27/17 A3003 RMK A01 T02720165  RH  052%=      5-min Rain = 0
KLO1 061436Z 19014KT 27/17 A3003 RMK A01 T02720165  RH  052%=      5-min Rain = 0
KLO1 061437Z 19016KT 27/17 A3003 RMK A01 T02720165  RH  052%=      5-min Rain = 0
KLO1 061438Z 19016KT 27/16 A3003 RMK A01 T02730164  RH  051%=      5-min Rain = 0
KLO1 061439Z 19013G18KT 27/17 A3003 RMK A01 T02730166  RH  052%=      5-min Rain = 0
KLO1 061440Z 19016KT 27/17 A3003 RMK A01 T02740165  RH  051%=      5-min Rain = 0
KLO1 061441Z 19014KT 27/17 A3003 RMK A01 T02740165  RH  051%=      5-min Rain = 0
KLO1 061442Z 20014KT 27/17 A3003 RMK A01 T02740165  RH  051%=      5-min Rain = 0
KLO1 061443Z 20015KT 28/17 A3003 RMK A01 T02750165  RH  051%=      5-min Rain = 0
KLO1 061444Z 19016KT 28/17 A3003 RMK A01 T02750165  RH  051%=      5-min Rain = 0
KLO1 061445Z 19014KT 28/17 A3003 RMK A01 T02760165  RH  051%=      5-min Rain = 0
KLO1 061446Z 19013KT 28/17 A3003 RMK A01 T02760167  RH  051%=      5-min Rain = 0
KLO1 061447Z 19014KT 28/17 A3003 RMK A01 T02760167  RH  051%=      5-min Rain = 0
KLO1 061448Z 18016KT 28/17 A3003 RMK A01 T02760165  RH  051%=      5-min Rain = 0
KLO1 061449Z 18015KT 28/17 A3003 RMK A01 T02760166  RH  051%=      5-min Rain = 0
KLO1 061450Z 18015KT 28/17 A3003 RMK A01 T02770168  RH  051%=      5-min Rain = 0
KLO1 061451Z 18016KT 28/17 A3003 RMK A01 T02770166  RH  051%=      5-min Rain = 0
KLO1 061452Z 18017KT 28/17 A3003 RMK A01 T02770166  RH  051%=      5-min Rain = 0
KLO1 061453Z 18016KT 28/17 A3003 RMK A01 T02770166  RH  051%=      5-min Rain = 0
KLO1 061454Z 19017KT 28/16 A3003 RMK A01 T02780164  RH  050%=      5-min Rain = 0
KLO1 061455Z 19015KT 28/17 A3003 RMK A01 T02780165  RH  050%=      5-min Rain = 0
KLO1 061456Z 19014KT 28/17 A3003 RMK A01 T02790165  RH  050%=      5-min Rain = 0
KLO1 061457Z 19016KT 28/17 A3003 RMK A01 T02790166  RH  050%=      5-min Rain = 0
KLO1 061458Z 19015KT 28/17 A3003 RMK A01 T02790165  RH  050%=      5-min Rain = 0
KLO1 061459Z 19015KT 28/17 A3003 RMK A01 T02790166  RH  050%=      5-min Rain = 0
KLO1 061500Z 18013G18KT 28/17 A3003 RMK A01 T02800167  RH  050%=      5-min Rain = 0
KLO1 061501Z 18016KT 28/17 A3003 RMK A01 T02810168  RH  050%=      5-min Rain = 0
KLO1 061502Z 18014G19KT 28/17 A3003 RMK A01 T02810167  RH  050%=      5-min Rain = 0
KLO1 061503Z 19016KT 28/17 A3003 RMK A01 T02810166  RH  050%=      5-min Rain = 0
KLO1 061504Z 18015KT 28/17 A3003 RMK A01 T02810167  RH  050%=      5-min Rain = 0
KLO1 061505Z 19015KT 28/17 A3003 RMK A01 T02810166  RH  050%=      5-min Rain = 0
KLO1 061506Z 18016KT 28/17 A3003 RMK A01 T02820166  RH  049%=      5-min Rain = 0
KLO1 061507Z 18013KT 28/17 A3003 RMK A01 T02820165  RH  049%=      5-min Rain = 0
KLO1 061508Z 18013KT 28/17 A3003 RMK A01 T02820167  RH  050%=      5-min Rain = 0
KLO1 061509Z 18014KT 28/17 A3003 RMK A01 T02830168  RH  050%=      5-min Rain = 0
KLO1 061510Z 18015KT 28/17 A3003 RMK A01 T02830168  RH  050%=      5-min Rain = 0
KLO1 061511Z 18012KT 28/17 A3003 RMK A01 T02840168  RH  049%=      5-min Rain = 0
KLO1 061512Z 18017KT 28/17 A3003 RMK A01 T02840168  RH  049%=      5-min Rain = 0
KLO1 061513Z 19017KT 29/17 A3003 RMK A01 T02850165  RH  048%=      5-min Rain = 0
KLO1 061514Z 19018KT 29/16 A3003 RMK A01 T02850163  RH  048%=      5-min Rain = 0
KLO1 061515Z 19017KT 29/16 A3003 RMK A01 T02850163  RH  048%=      5-min Rain = 0
KLO1 061516Z 19016G21KT 29/16 A3003 RMK A01 T02850163  RH  048%=      5-min Rain = 0
KLO1 061517Z 18016G21KT 29/17 A3003 RMK A01 T02850165  RH  048%=      5-min Rain = 0
KLO1 061518Z 19014KT 29/17 A3003 RMK A01 T02860166  RH  048%=      5-min Rain = 0
KLO1 061519Z 19015G20KT 29/17 A3003 RMK A01 T02880166  RH  048%=      5-min Rain = 0
KLO1 061520Z 19018KT 29/16 A3003 RMK A01 T02880164  RH  047%=      5-min Rain = 0
KLO1 061521Z 19017KT 29/16 A3003 RMK A01 T02880164  RH  047%=      5-min Rain = 0
KLO1 061522Z 19017KT 29/16 A3003 RMK A01 T02870164  RH  047%=      5-min Rain = 0
KLO1 061523Z 19016KT 29/16 A3003 RMK A01 T02870164  RH  047%=      5-min Rain = 0
KLO1 061524Z 19015KT 29/17 A3003 RMK A01 T02870165  RH  047%=      5-min Rain = 0
KLO1 061525Z 19017KT 29/17 A3003 RMK A01 T02880165  RH  048%=      5-min Rain = 0
KLO1 061526Z 19016KT 29/16 A3003 RMK A01 T02880164  RH  047%=      5-min Rain = 0
KLO1 061527Z 19015KT 29/16 A3003 RMK A01 T02890164  RH  047%=      5-min Rain = 0
KLO1 061528Z 19014KT 29/17 A3003 RMK A01 T02900165  RH  047%=      5-min Rain = 0
KLO1 061529Z 20014KT 29/17 A3003 RMK A01 T02910165  RH  047%=      5-min Rain = 0
KLO1 061530Z 19015KT 29/16 A3003 RMK A01 T02920164  RH  046%=      5-min Rain = 0
KLO1 061531Z 18014KT 29/17 A3003 RMK A01 T02920166  RH  046%=      5-min Rain = 0
KLO1 061532Z 18012KT 29/17 A3003 RMK A01 T02920167  RH  047%=      5-min Rain = 0
KLO1 061533Z 18012G18KT 29/17 A3003 RMK A01 T02940170  RH  047%=      5-min Rain = 0
KLO1 061534Z 19016KT 30/17 A3003 RMK A01 T02960166  RH  046%=      5-min Rain = 0
KLO1 061535Z 19013KT 29/17 A3003 RMK A01 T02940166  RH  046%=      5-min Rain = 0
KLO1 061536Z 19014KT 29/17 A3003 RMK A01 T02940168  RH  047%=      5-min Rain = 0
KLO1 061537Z 18014KT 30/17 A3003 RMK A01 T02950169  RH  046%=      5-min Rain = 0
KLO1 061538Z 18013KT 30/17 A3003 RMK A01 T02960167  RH  046%=      5-min Rain = 0
KLO1 061539Z 19011G16KT 30/17 A3003 RMK A01 T02960170  RH  047%=      5-min Rain = 0
KLO1 061540Z 19015KT 30/17 A3003 RMK A01 T02970168  RH  046%=      5-min Rain = 0
KLO1 061541Z 19013KT 30/17 A3003 RMK A01 T02970169  RH  046%=      5-min Rain = 0
KLO1 061542Z 18016KT 30/17 A3003 RMK A01 T02960169  RH  046%=      5-min Rain = 0
KLO1 061543Z 18015KT 30/17 A3003 RMK A01 T02960169  RH  046%=      5-min Rain = 0
KLO1 061544Z 18013KT 30/17 A3003 RMK A01 T02960169  RH  047%=      5-min Rain = 0
KLO1 061545Z 19014KT 30/17 A3003 RMK A01 T02960170  RH  047%=      5-min Rain = 0
KLO1 061546Z 18015KT 30/17 A3003 RMK A01 T02960170  RH  047%=      5-min Rain = 0
KLO1 061547Z 19013G18KT 30/17 A3003 RMK A01 T02960170  RH  047%=      5-min Rain = 0
KLO1 061548Z 18015KT 30/17 A3003 RMK A01 T02960169  RH  046%=      5-min Rain = 0
KLO1 061549Z 18016G21KT 30/17 A3003 RMK A01 T02970170  RH  046%=      5-min Rain = 0
KLO1 061550Z 18015KT 30/17 A3003 RMK A01 T02970172  RH  047%=      5-min Rain = 0
KLO1 061551Z 18013KT 30/17 A3003 RMK A01 T02970172  RH  047%=      5-min Rain = 0
KLO1 061552Z 19012KT 30/17 A3003 RMK A01 T02990173  RH  047%=      5-min Rain = 0
KLO1 061553Z 20014KT 30/17 A3003 RMK A01 T02990171  RH  046%=      5-min Rain = 0
KLO1 061554Z 20016KT 30/17 A3003 RMK A01 T02990168  RH  045%=      5-min Rain = 0
KLO1 061555Z 19014KT 30/17 A3003 RMK A01 T02990169  RH  046%=      5-min Rain = 0
KLO1 061556Z 18016KT 30/17 A3003 RMK A01 T02990170  RH  046%=      5-min Rain = 0
KLO1 061557Z 19014KT 30/17 A3003 RMK A01 T02990168  RH  045%=      5-min Rain = 0
KLO1 061558Z 19014G19KT 30/17 A3003 RMK A01 T03000166  RH  045%=      5-min Rain = 0
KLO1 061559Z 18018KT 30/17 A3003 RMK A01 T03000168  RH  045%=      5-min Rain = 0
KLO1 061600Z 19014KT 30/17 A3003 RMK A01 T03010171  RH  046%=      5-min Rain = 0
KLO1 061601Z 18016KT 30/17 A3003 RMK A01 T03010169  RH  045%=      5-min Rain = 0
KLO1 061602Z 19014KT 30/17 A3003 RMK A01 T03020169  RH  045%=      5-min Rain = 0
KLO1 061603Z 18016KT 30/17 A3003 RMK A01 T03030172  RH  045%=      5-min Rain = 0
KLO1 061604Z 18017KT 30/17 A3003 RMK A01 T03040173  RH  046%=      5-min Rain = 0
KLO1 061605Z 18014KT 30/17 A3003 RMK A01 T03030173  RH  046%=      5-min Rain = 0
KLO1 061606Z 18016KT 30/17 A3003 RMK A01 T03020172  RH  046%=      5-min Rain = 0
KLO1 061607Z 18015KT 30/17 A3003 RMK A01 T03030173  RH  046%=      5-min Rain = 0
KLO1 061608Z 18015KT 30/17 A3003 RMK A01 T03030171  RH  045%=      5-min Rain = 0
KLO1 061609Z 18015G20KT 30/17 A3003 RMK A01 T03030173  RH  046%=      5-min Rain = 0
KLO1 061610Z 19012KT 30/17 A3003 RMK A01 T03030173  RH  046%=      5-min Rain = 0
KLO1 061611Z 18015KT 30/17 A3003 RMK A01 T03040174  RH  046%=      5-min Rain = 0
KLO1 061612Z 18016KT 31/17 A3003 RMK A01 T03050172  RH  045%=      5-min Rain = 0
KLO1 061613Z 18015KT 31/17 A3003 RMK A01 T03050172  RH  045%=      5-min Rain = 0
KLO1 061614Z 18014G19KT 31/17 A3003 RMK A01 T03060173  RH  045%=      5-min Rain = 0
KLO1 061615Z 18013KT 31/17 A3003 RMK A01 T03060174  RH  045%=      5-min Rain = 0
KLO1 061616Z 18016KT 31/17 A3003 RMK A01 T03060173  RH  045%=      5-min Rain = 0
KLO1 061617Z 20015KT 31/17 A3003 RMK A01 T03080168  RH  043%=      5-min Rain = 0
KLO1 061618Z 21015KT 31/17 A3003 RMK A01 T03090168  RH  043%=      5-min Rain = 0
KLO1 061619Z 19016G22KT 31/17 A3003 RMK A01 T03100171  RH  043%=      5-min Rain = 0
KLO1 061620Z 17017KT 31/17 A3003 RMK A01 T03110173  RH  044%=      5-min Rain = 0
KLO1 061621Z 18015KT 31/17 A3003 RMK A01 T03090173  RH  044%=      5-min Rain = 0
KLO1 061622Z 18017KT 31/17 A3003 RMK A01 T03070173  RH  045%=      5-min Rain = 0
KLO1 061623Z 17015KT 31/17 A3003 RMK A01 T03070172  RH  044%=      5-min Rain = 0
KLO1 061624Z 17015G21KT 31/17 A3003 RMK A01 T03080170  RH  044%=      5-min Rain = 0
KLO1 061625Z 18020KT 31/17 A3003 RMK A01 T03100169  RH  043%=      5-min Rain = 0
KLO1 061626Z 19018KT 31/17 A3003 RMK A01 T03120167  RH  042%=      5-min Rain = 0
KLO1 061627Z 20016KT 31/17 A3003 RMK A01 T03110166  RH  042%=      5-min Rain = 0
KLO1 061628Z 20017KT 31/17 A3003 RMK A01 T03120167  RH  042%=      5-min Rain = 0
KLO1 061629Z 19015KT 31/17 A3003 RMK A01 T03130167  RH  042%=      5-min Rain = 0
KLO1 061630Z 18017KT 31/17 A3003 RMK A01 T03130169  RH  042%=      5-min Rain = 0
KLO1 061631Z 19014KT 31/17 A3003 RMK A01 T03130169  RH  042%=      5-min Rain = 0
KLO1 061632Z 19013KT 32/17 A3003 RMK A01 T03160168  RH  041%=      5-min Rain = 0
KLO1 061633Z 20018KT 32/17 A3003 RMK A01 T03170165  RH  040%=      5-min Rain = 0
KLO1 061634Z 20017KT 32/16 A3003 RMK A01 T03170164  RH  040%=      5-min Rain = 0
KLO1 061635Z 19018KT 32/17 A3003 RMK A01 T03170167  RH  041%=      5-min Rain = 0
KLO1 061636Z 19016KT 32/17 A3003 RMK A01 T03160166  RH  040%=      5-min Rain = 0
KLO1 061637Z 19018KT 32/16 A3003 RMK A01 T03150163  RH  040%=      5-min Rain = 0
KLO1 061638Z 20016KT 31/16 A3003 RMK A01 T03140163  RH  040%=      5-min Rain = 0
KLO1 061639Z 21016KT 32/16 A3003 RMK A01 T03150163  RH  040%=      5-min Rain = 0
KLO1 061640Z 20016KT 32/16 A3003 RMK A01 T03170164  RH  040%=      5-min Rain = 0
KLO1 061641Z 19016KT 32/16 A3003 RMK A01 T03190163  RH  039%=      5-min Rain = 0
KLO1 061642Z 19014KT 32/16 A3003 RMK A01 T03200163  RH  039%=      5-min Rain = 0
KLO1 061643Z 19011KT 32/17 A3003 RMK A01 T03190165  RH  040%=      5-min Rain = 0
KLO1 061644Z 19017G22KT 32/17 A3003 RMK A01 T03190165  RH  039%=      5-min Rain = 0
KLO1 061645Z 18018G23KT 32/17 A3003 RMK A01 T03200166  RH  040%=      5-min Rain = 0
KLO1 061646Z 18016KT 32/17 A3003 RMK A01 T03180169  RH  041%=      5-min Rain = 0
KLO1 061647Z 18017KT 32/17 A3003 RMK A01 T03190168  RH  040%=      5-min Rain = 0
KLO1 061648Z 18016KT 32/17 A3003 RMK A01 T03190167  RH  040%=      5-min Rain = 0
KLO1 061649Z 18015KT 32/17 A3003 RMK A01 T03160165  RH  040%=      5-min Rain = 0
KLO1 061650Z 18014KT 32/17 A3003 RMK A01 T03160166  RH  041%=      5-min Rain = 0
KLO1 061651Z 19020KT 32/17 A3002 RMK A01 T03170167  RH  041%=      5-min Rain = 0
KLO1 061652Z 19016G21KT 32/17 A3003 RMK A01 T03170167  RH  041%=      5-min Rain = 0
KLO1 061653Z 19014G19KT 32/17 A3003 RMK A01 T03160169  RH  041%=      5-min Rain = 0
KLO1 061654Z 18014G19KT 32/17 A3002 RMK A01 T03160168  RH  041%=      5-min Rain = 0
KLO1 061655Z 16016KT 32/16 A3002 RMK A01 T03170164  RH  040%=      5-min Rain = 0
KLO1 061656Z 17015KT 32/16 A3003 RMK A01 T03180161  RH  039%=      5-min Rain = 0
KLO1 061657Z 19018KT 32/16 A3002 RMK A01 T03180161  RH  039%=      5-min Rain = 0
KLO1 061658Z 19018KT 32/16 A3002 RMK A01 T03180161  RH  039%=      5-min Rain = 0
KLO1 061659Z 19017G22KT 32/17 A3002 RMK A01 T03190165  RH  040%=      5-min Rain = 0
KLO1 061700Z 19018KT 32/16 A3002 RMK A01 T03190164  RH  039%=      5-min Rain = 0
KLO1 061701Z 19017KT 32/16 A3002 RMK A01 T03190162  RH  039%=      5-min Rain = 0
KLO1 061702Z 18014KT 32/16 A3002 RMK A01 T03190163  RH  039%=      5-min Rain = 0
KLO1 061703Z 18014KT 32/16 A3002 RMK A01 T03200161  RH  039%=      5-min Rain = 0
KLO1 061704Z 18012KT 32/16 A3002 RMK A01 T03200162  RH  039%=      5-min Rain = 0
KLO1 061705Z 19013KT 32/16 A3002 RMK A01 T03200164  RH  039%=      5-min Rain = 0
KLO1 061706Z 19015G20KT 32/17 A3002 RMK A01 T03200165  RH  039%=      5-min Rain = 0
KLO1 061707Z 19017KT 32/16 A3002 RMK A01 T03210164  RH  039%=      5-min Rain = 0
KLO1 061708Z 18016KT 32/17 A3002 RMK A01 T03210165  RH  039%=      5-min Rain = 0
KLO1 061709Z 18016KT 32/16 A3002 RMK A01 T03210164  RH  039%=      5-min Rain = 0
KLO1 061710Z 18014KT 32/17 A3002 RMK A01 T03190165  RH  039%=      5-min Rain = 0
KLO1 061711Z 19011KT 32/17 A3002 RMK A01 T03190167  RH  040%=      5-min Rain = 0
KLO1 061712Z 19016KT 32/17 A3002 RMK A01 T03220170  RH  040%=      5-min Rain = 0
KLO1 061713Z 19016KT 33/17 A3002 RMK A01 T03250167  RH  039%=      5-min Rain = 0
KLO1 061714Z 18015KT 32/17 A3002 RMK A01 T03240168  RH  039%=      5-min Rain = 0
KLO1 061715Z 18014KT 32/17 A3002 RMK A01 T03240168  RH  039%=      5-min Rain = 0
KLO1 061716Z 18013KT 32/17 A3002 RMK A01 T03240166  RH  039%=      5-min Rain = 0
KLO1 061717Z 18016KT 32/17 A3002 RMK A01 T03240165  RH  038%=      5-min Rain = 0
KLO1 061718Z 19019KT 33/16 A3002 RMK A01 T03260161  RH  037%=      5-min Rain = 0
KLO1 061719Z 19017KT 32/15 A3002 RMK A01 T03240153  RH  036%=      5-min Rain = 0
KLO1 061720Z 19016KT 32/16 A3002 RMK A01 T03230157  RH  037%=      5-min Rain = 0
KLO1 061721Z 18017KT 32/16 A3002 RMK A01 T03230159  RH  037%=      5-min Rain = 0
KLO1 061722Z 18014KT 32/16 A3002 RMK A01 T03230163  RH  038%=      5-min Rain = 0
KLO1 061723Z 20016KT 32/16 A3001 RMK A01 T03240159  RH  037%=      5-min Rain = 0
KLO1 061724Z 20018KT 33/16 A3001 RMK A01 T03260158  RH  036%=      5-min Rain = 0
KLO1 061725Z 19016KT 33/16 A3002 RMK A01 T03280156  RH  036%=      5-min Rain = 0
KLO1 061726Z 19015KT 33/16 A3002 RMK A01 T03280159  RH  036%=      5-min Rain = 0
KLO1 061727Z 18016KT 33/16 A3001 RMK A01 T03270161  RH  037%=      5-min Rain = 0
KLO1 061728Z 19015KT 33/16 A3002 RMK A01 T03280159  RH  036%=      5-min Rain = 0
KLO1 061729Z 19013G20KT 33/15 A3001 RMK A01 T03290152  RH  034%=      5-min Rain = 0
KLO1 061730Z 19016KT 33/16 A3001 RMK A01 T03300155  RH  035%=      5-min Rain = 0
KLO1 061731Z 19017KT 33/15 A3001 RMK A01 T03290154  RH  035%=      5-min Rain = 0
KLO1 061732Z 19015KT 33/16 A3001 RMK A01 T03270158  RH  036%=      5-min Rain = 0
KLO1 061733Z 18013KT 33/16 A3001 RMK A01 T03260160  RH  037%=      5-min Rain = 0
KLO1 061734Z 17013KT 33/16 A3001 RMK A01 T03250163  RH  038%=      5-min Rain = 0
KLO1 061735Z 18014KT 33/16 A3001 RMK A01 T03250160  RH  037%=      5-min Rain = 0
KLO1 061736Z 19012KT 33/16 A3001 RMK A01 T03250158  RH  037%=      5-min Rain = 0
KLO1 061737Z 18015G20KT 33/16 A3001 RMK A01 T03270155  RH  035%=      5-min Rain = 0
KLO1 061738Z 19016KT 33/15 A3001 RMK A01 T03310154  RH  035%=      5-min Rain = 0
KLO1 061739Z 18014KT 33/16 A3001 RMK A01 T03320156  RH  035%=      5-min Rain = 0
KLO1 061740Z 19015G20KT 33/16 A3001 RMK A01 T03340158  RH  035%=      5-min Rain = 0
KLO1 061741Z 20014KT 34/16 A3001 RMK A01 T03350156  RH  034%=      5-min Rain = 0
KLO1 061742Z 20014KT 34/15 A3001 RMK A01 T03360154  RH  034%=      5-min Rain = 0
KLO1 061743Z 19013G18KT 34/16 A3001 RMK A01 T03360155  RH  034%=      5-min Rain = 0
KLO1 061744Z 18014KT 34/16 A3001 RMK A01 T03360155  RH  034%=      5-min Rain = 0
KLO1 061745Z 17014KT 34/16 A3001 RMK A01 T03360155  RH  034%=      5-min Rain = 0
KLO1 061746Z 19017KT 34/15 A3001 RMK A01 T03370148  RH  032%=      5-min Rain = 0
KLO1 061747Z 19018KT 34/15 A3001 RMK A01 T03370145  RH  031%=      5-min Rain = 0
KLO1 061748Z 19018KT 34/15 A3001 RMK A01 T03360149  RH  033%=      5-min Rain = 0
KLO1 061749Z 19014KT 34/15 A3001 RMK A01 T03350149  RH  033%=      5-min Rain = 0
KLO1 061750Z 19015KT 34/15 A3001 RMK A01 T03360147  RH  032%=      5-min Rain = 0
KLO1 061751Z 20017KT 34/15 A3001 RMK A01 T03380149  RH  032%=      5-min Rain = 0
KLO1 061752Z 20015KT 34/15 A3001 RMK A01 T03370149  RH  032%=      5-min Rain = 0
KLO1 061753Z 18016KT 34/15 A3001 RMK A01 T03370148  RH  032%=      5-min Rain = 0
KLO1 061754Z 18014KT 34/15 A3001 RMK A01 T03380147  RH  032%=      5-min Rain = 0
KLO1 061755Z 19014KT 34/15 A3001 RMK A01 T03390149  RH  032%=      5-min Rain = 0
KLO1 061756Z 19014KT 34/15 A3001 RMK A01 T03390151  RH  032%=      5-min Rain = 0
KLO1 061757Z 18015KT 34/15 A3001 RMK A01 T03400153  RH  033%=      5-min Rain = 0
KLO1 061758Z 20016KT 34/15 A3001 RMK A01 T03420147  RH  031%=      5-min Rain = 0
KLO1 061759Z 20015KT 34/14 A3001 RMK A01 T03420140  RH  030%=      5-min Rain = 0
KLO1 061800Z 19012KT 34/15 A3001 RMK A01 T03420149  RH  031%=      5-min Rain = 0
KLO1 061801Z 18013KT 34/15 A3001 RMK A01 T03440152  RH  032%=      5-min Rain = 0
KLO1 061802Z 18012KT 34/15 A3001 RMK A01 T03430151  RH  032%=      5-min Rain = 0
KLO1 061803Z 19014KT 34/15 A3001 RMK A01 T03410152  RH  032%=      5-min Rain = 0
KLO1 061804Z 18013KT 34/15 A3001 RMK A01 T03410149  RH  032%=      5-min Rain = 0
KLO1 061805Z 20012KT 34/15 A3001 RMK A01 T03420146  RH  031%=      5-min Rain = 0
KLO1 061806Z 18013KT 34/15 A3001 RMK A01 T03420149  RH  031%=      5-min Rain = 0
KLO1 061807Z 18013KT 34/15 A3001 RMK A01 T03440151  RH  032%=      5-min Rain = 0
KLO1 061808Z 18013KT 34/15 A3001 RMK A01 T03420150  RH  032%=      5-min Rain = 0
KLO1 061809Z 18013KT 34/15 A3001 RMK A01 T03420151  RH  032%=      5-min Rain = 0
KLO1 061810Z 19018KT 34/14 A3001 RMK A01 T03440144  RH  030%=      5-min Rain = 0
KLO1 061811Z 19015G20KT 35/14 A3001 RMK A01 T03450143  RH  030%=      5-min Rain = 0
KLO1 061812Z 19017KT 35/15 A3001 RMK A01 T03460145  RH  030%=      5-min Rain = 0
KLO1 061813Z 18016KT 35/15 A3001 RMK A01 T03450150  RH  031%=      5-min Rain = 0
KLO1 061814Z 19015KT 35/15 A3001 RMK A01 T03450154  RH  032%=      5-min Rain = 0
KLO1 061815Z 19015KT 35/15 A3001 RMK A01 T03460154  RH  032%=      5-min Rain = 0
KLO1 061816Z 19016KT 35/15 A3001 RMK A01 T03460151  RH  031%=      5-min Rain = 0
KLO1 061817Z 19012KT 35/15 A3001 RMK A01 T03460150  RH  031%=      5-min Rain = 0
KLO1 061818Z 19011KT 35/15 A3001 RMK A01 T03450147  RH  031%=      5-min Rain = 0
KLO1 061819Z 20014KT 35/14 A30 RMK A01 T03460143  RH  030%=      5-min Rain = 0
KLO1 061820Z 19016KT 35/13 A3001 RMK A01 T03490129  RH  027%=      5-min Rain = 0
KLO1 061821Z 19016KT 35/13 A3001 RMK A01 T03500127  RH  026%=      5-min Rain = 0
KLO1 061822Z 20013KT 35/14 A3001 RMK A01 T03490137  RH  028%=      5-min Rain = 0
KLO1 061823Z 20014KT 35/14 A3001 RMK A01 T03490141  RH  029%=      5-min Rain = 0
KLO1 061824Z 20012KT 35/14 A3001 RMK A01 T03490144  RH  029%=      5-min Rain = 0
KLO1 061825Z 20011KT 35/15 A30 RMK A01 T03480147  RH  030%=      5-min Rain = 0
KLO1 061826Z 19013KT 35/15 A30 RMK A01 T03500153  RH  031%=      5-min Rain = 0
KLO1 061827Z 19013KT 35/16 A30 RMK A01 T03500156  RH  031%=      5-min Rain = 0
KLO1 061828Z 19013KT 35/16 A30 RMK A01 T03500155  RH  031%=      5-min Rain = 0
KLO1 061829Z 18010KT 35/15 A30 RMK A01 T03490154  RH  031%=      5-min Rain = 0
KLO1 061830Z 20010KT 35/15 A30 RMK A01 T03480152  RH  031%=      5-min Rain = 0
KLO1 061831Z 21012KT 35/15 A30 RMK A01 T03500148  RH  030%=      5-min Rain = 0
KLO1 061832Z 20012KT 35/15 A30 RMK A01 T03530149  RH  030%=      5-min Rain = 0
KLO1 061833Z 21014KT 36/15 A30 RMK A01 T03550148  RH  029%=      5-min Rain = 0
KLO1 061834Z 19015KT 36/14 A30 RMK A01 T03570144  RH  028%=      5-min Rain = 0
KLO1 061835Z 18013KT 36/15 A30 RMK A01 T03560145  RH  028%=      5-min Rain = 0
KLO1 061836Z 18010KT 36/15 A30 RMK A01 T03550149  RH  029%=      5-min Rain = 0
KLO1 061837Z 19010KT 36/15 A30 RMK A01 T03570153  RH  030%=      5-min Rain = 0
KLO1 061838Z 18009KT 36/15 A30 RMK A01 T03550152  RH  030%=      5-min Rain = 0
KLO1 061839Z 17010KT 35/15 A30 RMK A01 T03530152  RH  030%=      5-min Rain = 0
KLO1 061840Z 18011KT 35/15 A30 RMK A01 T03520152  RH  030%=      5-min Rain = 0
KLO1 061841Z 20016KT 35/15 A30 RMK A01 T03530148  RH  029%=      5-min Rain = 0
KLO1 061842Z 19015KT 36/15 A30 RMK A01 T03560149  RH  029%=      5-min Rain = 0
KLO1 061843Z 19013KT 36/15 A30 RMK A01 T03570146  RH  028%=      5-min Rain = 0
KLO1 061844Z 20013KT 36/14 A30 RMK A01 T03560141  RH  028%=      5-min Rain = 0
KLO1 061845Z 19010KT 36/14 A30 RMK A01 T03550141  RH  028%=      5-min Rain = 0
KLO1 061846Z 21010KT 35/14 A30 RMK A01 T03540142  RH  028%=      5-min Rain = 0
KLO1 061847Z 21009KT 36/14 A30 RMK A01 T03550140  RH  028%=      5-min Rain = 0
KLO1 061848Z 20009KT 36/14 A30 RMK A01 T03550143  RH  028%=      5-min Rain = 0
KLO1 061849Z 19010KT 36/15 A2999 RMK A01 T03560146  RH  028%=      5-min Rain = 0
KLO1 061850Z 18010KT 36/15 A2999 RMK A01 T03560151  RH  029%=      5-min Rain = 0
KLO1 061851Z 18012G17KT 36/15 A2999 RMK A01 T03570147  RH  029%=      5-min Rain = 0
KLO1 061852Z 17017KT 36/14 A2999 RMK A01 T03580138  RH  027%=      5-min Rain = 0
KLO1 061853Z 18011KT 35/14 A2999 RMK A01 T03540135  RH  027%=      5-min Rain = 0
KLO1 061854Z 19015KT 35/14 A2999 RMK A01 T03520138  RH  028%=      5-min Rain = 0
KLO1 061855Z 19015KT 35/14 A2999 RMK A01 T03510139  RH  028%=      5-min Rain = 0
KLO1 061856Z 18012KT 35/13 A2999 RMK A01 T03530133  RH  027%=      5-min Rain = 0
KLO1 061857Z 18012KT 35/14 A2999 RMK A01 T03540135  RH  027%=      5-min Rain = 0
KLO1 061858Z 19013KT 35/14 A2999 RMK A01 T03540139  RH  027%=      5-min Rain = 0
KLO1 061859Z 19013KT 36/14 A2999 RMK A01 T03560141  RH  028%=      5-min Rain = 0
KLO1 061900Z 18012KT 36/14 A2999 RMK A01 T03580143  RH  028%=      5-min Rain = 0
KLO1 061901Z 18013KT 36/14 A2999 RMK A01 T03570144  RH  028%=      5-min Rain = 0
KLO1 061902Z 18011KT 36/14 A2999 RMK A01 T03560142  RH  028%=      5-min Rain = 0
KLO1 061903Z 18015KT 36/14 A2999 RMK A01 T03550140  RH  028%=      5-min Rain = 0
KLO1 061904Z 17015KT 36/14 A2999 RMK A01 T03570140  RH  027%=      5-min Rain = 0
KLO1 061905Z 15017KT 36/14 A2998 RMK A01 T03580139  RH  027%=      5-min Rain = 0
KLO1 061906Z 17016KT 36/14 A2999 RMK A01 T03580143  RH  028%=      5-min Rain = 0
KLO1 061907Z 16015KT 36/14 A2999 RMK A01 T03580141  RH  027%=      5-min Rain = 0
KLO1 061908Z 16013KT 36/14 A2999 RMK A01 T03570141  RH  028%=      5-min Rain = 0
KLO1 061909Z 15013KT 36/14 A2998 RMK A01 T03560139  RH  027%=      5-min Rain = 0
KLO1 061910Z 15013KT 36/13 A2998 RMK A01 T03570134  RH  026%=      5-min Rain = 0
KLO1 061911Z 17016KT 36/13 A2998 RMK A01 T03570133  RH  026%=      5-min Rain = 0
KLO1 061912Z 18016KT 36/14 A2998 RMK A01 T03570136  RH  026%=      5-min Rain = 0
KLO1 061913Z 18013KT 36/14 A2998 RMK A01 T03580137  RH  027%=      5-min Rain = 0
KLO1 061914Z 18014KT 36/14 A2998 RMK A01 T03580136  RH  027%=      5-min Rain = 0
KLO1 061915Z 17014KT 36/14 A2998 RMK A01 T03570138  RH  027%=      5-min Rain = 0
KLO1 061916Z 17014KT 36/14 A2998 RMK A01 T03560137  RH  027%=      5-min Rain = 0
KLO1 061917Z 19013KT 36/14 A2998 RMK A01 T03570138  RH  027%=      5-min Rain = 0
KLO1 061918Z 19012KT 36/14 A2998 RMK A01 T03590140  RH  027%=      5-min Rain = 0
KLO1 061919Z 19016KT 36/13 A2998 RMK A01 T03610133  RH  026%=      5-min Rain = 0
KLO1 061920Z 19015KT 36/13 A2998 RMK A01 T03590127  RH  025%=      5-min Rain = 0
KLO1 061921Z 19010KT 36/13 A2998 RMK A01 T03580129  RH  025%=      5-min Rain = 0
KLO1 061922Z 19013KT 36/13 A2998 RMK A01 T03610134  RH  026%=      5-min Rain = 0
KLO1 061923Z 18017KT 36/13 A2998 RMK A01 T03620131  RH  025%=      5-min Rain = 0
KLO1 061924Z 18013KT 36/13 A2998 RMK A01 T03580128  RH  025%=      5-min Rain = 0
KLO1 061925Z 19013KT 36/13 A2998 RMK A01 T03560133  RH  026%=      5-min Rain = 0
KLO1 061926Z 17012KT 36/14 A2998 RMK A01 T03560136  RH  027%=      5-min Rain = 0
KLO1 061927Z 17017G24KT 36/13 A2998 RMK A01 T03590133  RH  026%=      5-min Rain = 0
KLO1 061928Z 18017KT 36/13 A2998 RMK A01 T03610131  RH  025%=      5-min Rain = 0
KLO1 061929Z 17014G19KT 36/13 A2998 RMK A01 T03610128  RH  025%=      5-min Rain = 0
KLO1 061930Z 17015KT 36/13 A2998 RMK A01 T03610127  RH  024%=      5-min Rain = 0
KLO1 061931Z 18017KT 36/13 A2998 RMK A01 T03620125  RH  024%=      5-min Rain = 0
KLO1 061932Z 18016KT 36/13 A2998 RMK A01 T03620133  RH  025%=      5-min Rain = 0
KLO1 061933Z 18013KT 36/13 A2998 RMK A01 T03630131  RH  025%=      5-min Rain = 0
KLO1 061934Z 17012KT 36/13 A2998 RMK A01 T03630133  RH  025%=      5-min Rain = 0
KLO1 061935Z 16012KT 36/13 A2998 RMK A01 T03630133  RH  025%=      5-min Rain = 0
KLO1 061936Z 18011KT 36/14 A2997 RMK A01 T03620136  RH  026%=      5-min Rain = 0
KLO1 061937Z 17012KT 36/13 A2997 RMK A01 T03620134  RH  025%=      5-min Rain = 0
KLO1 061938Z 18014G19KT 36/14 A2997 RMK A01 T03630139  RH  026%=      5-min Rain = 0
KLO1 061939Z 18014KT 37/14 A2997 RMK A01 T03650139  RH  026%=      5-min Rain = 0
KLO1 061940Z 16014KT 37/14 A2997 RMK A01 T03650138  RH  026%=      5-min Rain = 0
KLO1 061941Z 17013KT 36/13 A2997 RMK A01 T03640134  RH  025%=      5-min Rain = 0
KLO1 061942Z 17013G18KT 36/14 A2997 RMK A01 T03630139  RH  026%=      5-min Rain = 0
KLO1 061943Z 17017KT 37/14 A2997 RMK A01 T03670140  RH  026%=      5-min Rain = 0
KLO1 061944Z 17016KT 37/14 A2997 RMK A01 T03660138  RH  026%=      5-min Rain = 0
KLO1 061945Z 18013KT 36/14 A2997 RMK A01 T03640139  RH  026%=      5-min Rain = 0
KLO1 061946Z 18012KT 36/14 A2997 RMK A01 T03640139  RH  026%=      5-min Rain = 0
KLO1 061947Z 17014KT 37/13 A2997 RMK A01 T03660133  RH  025%=      5-min Rain = 0
KLO1 061948Z 17012KT 37/13 A2997 RMK A01 T03680131  RH  024%=      5-min Rain = 0
KLO1 061949Z 18013KT 37/13 A2997 RMK A01 T03670130  RH  024%=      5-min Rain = 0
KLO1 061950Z 19012KT 37/12 A2997 RMK A01 T03650123  RH  023%=      5-min Rain = 0
KLO1 061951Z 19009G14KT 36/13 A2997 RMK A01 T03640130  RH  025%=      5-min Rain = 0
KLO1 061952Z 18016G22KT 37/13 A2997 RMK A01 T03680133  RH  025%=      5-min Rain = 0
KLO1 061953Z 19018KT 37/13 A2997 RMK A01 T03690127  RH  024%=      5-min Rain = 0
KLO1 061954Z 19017G22KT 37/13 A2997 RMK A01 T03690125  RH  023%=      5-min Rain = 0
KLO1 061955Z 19016KT 37/12 A2997 RMK A01 T03690124  RH  023%=      5-min Rain = 0
KLO1 061956Z 18013KT 37/13 A2997 RMK A01 T03690131  RH  024%=      5-min Rain = 0
KLO1 061957Z 18013KT 37/13 A2997 RMK A01 T03700134  RH  025%=      5-min Rain = 0
KLO1 061958Z 18012KT 37/13 A2997 RMK A01 T03690129  RH  024%=      5-min Rain = 0
KLO1 061959Z 16012KT 37/13 A2997 RMK A01 T03680134  RH  025%=      5-min Rain = 0
KLO1 062000Z 15013KT 37/13 A2996 RMK A01 T03690131  RH  024%=      5-min Rain = 0
KLO1 062001Z 15014KT 37/13 A2996 RMK A01 T03700131  RH  024%=      5-min Rain = 0
KLO1 062002Z 15013KT 37/14 A2996 RMK A01 T03700141  RH  026%=      5-min Rain = 0
KLO1 062003Z 19011KT 37/15 A2996 RMK A01 T03720145  RH  026%=      5-min Rain = 0
KLO1 062004Z 19014KT 37/14 A2996 RMK A01 T03730144  RH  026%=      5-min Rain = 0
KLO1 062005Z 18014KT 37/14 A2996 RMK A01 T03730138  RH  025%=      5-min Rain = 0
KLO1 062006Z 16014G19KT 37/13 A2996 RMK A01 T03730133  RH  024%=      5-min Rain = 0
KLO1 062007Z 16012KT 38/14 A2996 RMK A01 T03750138  RH  024%=      5-min Rain = 0
KLO1 062008Z 17013KT 38/14 A2996 RMK A01 T03760135  RH  024%=      5-min Rain = 0
KLO1 062009Z 18015KT 37/14 A2996 RMK A01 T03730137  RH  024%=      5-min Rain = 0
KLO1 062010Z 18018KT 37/14 A2996 RMK A01 T03720138  RH  025%=      5-min Rain = 0
KLO1 062011Z 18017KT 37/14 A2996 RMK A01 T03700139  RH  025%=      5-min Rain = 0
KLO1 062012Z 19014KT 37/14 A2996 RMK A01 T03690143  RH  026%=      5-min Rain = 0
KLO1 062013Z 19016KT 37/14 A2996 RMK A01 T03700140  RH  026%=      5-min Rain = 0
KLO1 062014Z 19015KT 37/14 A2996 RMK A01 T03690141  RH  026%=      5-min Rain = 0
KLO1 062015Z 19014KT 37/14 A2996 RMK A01 T03690139  RH  025%=      5-min Rain = 0
KLO1 062016Z 17013KT 37/14 A2996 RMK A01 T03690141  RH  026%=      5-min Rain = 0
KLO1 062017Z 16014G20KT 37/13 A2996 RMK A01 T03680133  RH  025%=      5-min Rain = 0
KLO1 062018Z 16018KT 37/12 A2996 RMK A01 T03700120  RH  022%=      5-min Rain = 0
KLO1 062019Z 17015KT 37/12 A2996 RMK A01 T03720122  RH  022%=      5-min Rain = 0
KLO1 062020Z 17013KT 37/13 A2996 RMK A01 T03720128  RH  023%=      5-min Rain = 0
KLO1 062021Z 16013KT 37/13 A2996 RMK A01 T03740128  RH  023%=      5-min Rain = 0
KLO1 062022Z 15015KT 37/13 A2996 RMK A01 T03740133  RH  024%=      5-min Rain = 0
KLO1 062023Z 15014KT 37/13 A2996 RMK A01 T03730130  RH  023%=      5-min Rain = 0
KLO1 062024Z 14013KT 37/13 A2996 RMK A01 T03710128  RH  023%=      5-min Rain = 0
KLO1 062025Z 16013G21KT 37/13 A2996 RMK A01 T03710134  RH  024%=      5-min Rain = 0
KLO1 062026Z 17016KT 37/13 A2996 RMK A01 T03730127  RH  023%=      5-min Rain = 0
KLO1 062027Z 18011KT 37/13 A2996 RMK A01 T03730127  RH  023%=      5-min Rain = 0
KLO1 062028Z 18015KT 37/12 A2996 RMK A01 T03740115  RH  021%=      5-min Rain = 0
KLO1 062029Z 19018KT 37/12 A2996 RMK A01 T03740117  RH  021%=      5-min Rain = 0
KLO1 062030Z 18019KT 37/12 A2996 RMK A01 T03740119  RH  022%=      5-min Rain = 0
KLO1 062031Z 18015KT 37/12 A2996 RMK A01 T03740119  RH  022%=      5-min Rain = 0
KLO1 062032Z 18012KT 37/12 A2996 RMK A01 T03720120  RH  022%=      5-min Rain = 0
KLO1 062033Z 18015KT 37/12 A2996 RMK A01 T03720120  RH  022%=      5-min Rain = 0
KLO1 062034Z 19012KT 37/12 A2996 RMK A01 T03730122  RH  022%=      5-min Rain = 0
KLO1 062035Z 19012KT 38/12 A2996 RMK A01 T03750124  RH  022%=      5-min Rain = 0
KLO1 062036Z 18012KT 38/12 A2996 RMK A01 T03760122  RH  022%=      5-min Rain = 0
KLO1 062037Z 17010KT 37/12 A2996 RMK A01 T03740123  RH  022%=      5-min Rain = 0
KLO1 062038Z 17011KT 37/13 A2996 RMK A01 T03730125  RH  023%=      5-min Rain = 0
KLO1 062039Z 17014KT 37/13 A2996 RMK A01 T03730127  RH  023%=      5-min Rain = 0
KLO1 062040Z 16013KT 38/12 A2996 RMK A01 T03750120  RH  022%=      5-min Rain = 0
KLO1 062041Z 16015KT 38/12 A2996 RMK A01 T03750118  RH  021%=      5-min Rain = 0
KLO1 062042Z 17014KT 38/11 A2996 RMK A01 T03760113  RH  021%=      5-min Rain = 0
KLO1 062043Z 17013KT 38/12 A2996 RMK A01 T03760115  RH  021%=      5-min Rain = 0
KLO1 062044Z 18014G19KT 38/12 A2996 RMK A01 T03780123  RH  022%=      5-min Rain = 0
KLO1 062045Z 17014G19KT 38/12 A2996 RMK A01 T03780119  RH  021%=      5-min Rain = 0
KLO1 062046Z 17014KT 38/12 A2996 RMK A01 T03760121  RH  022%=      5-min Rain = 0
KLO1 062047Z 18015KT 38/12 A2996 RMK A01 T03770124  RH  022%=      5-min Rain = 0
KLO1 062048Z 18011KT 38/12 A2996 RMK A01 T03770124  RH  022%=      5-min Rain = 0
KLO1 062049Z 18008KT 38/13 A2996 RMK A01 T03760125  RH  022%=      5-min Rain = 0
KLO1 062050Z 17012KT 38/13 A2995 RMK A01 T03770126  RH  022%=      5-min Rain = 0
KLO1 062051Z 16014KT 38/12 A2995 RMK A01 T03780121  RH  022%=      5-min Rain = 0
KLO1 062052Z 15014KT 38/12 A2995 RMK A01 T03770116  RH  021%=      5-min Rain = 0
KLO1 062053Z 17012KT 38/12 A2995 RMK A01 T03760117  RH  021%=      5-min Rain = 0
KLO1 062054Z 17015G20KT 38/12 A2995 RMK A01 T03760119  RH  021%=      5-min Rain = 0
KLO1 062055Z 16015KT 38/12 A2995 RMK A01 T03770120  RH  022%=      5-min Rain = 0
KLO1 062056Z 18013KT 38/12 A2995 RMK A01 T03770124  RH  022%=      5-min Rain = 0
KLO1 062057Z 15010KT 38/13 A2995 RMK A01 T03760127  RH  022%=      5-min Rain = 0
KLO1 062058Z 16011KT 38/13 A2995 RMK A01 T03770125  RH  022%=      5-min Rain = 0
KLO1 062059Z 15012KT 38/13 A2995 RMK A01 T03770126  RH  022%=      5-min Rain = 0
KLO1 062100Z 15016G21KT 38/12 A2995 RMK A01 T03770121  RH  022%=      5-min Rain = 0
KLO1 062101Z 15012KT 38/12 A2995 RMK A01 T03770123  RH  022%=      5-min Rain = 0
KLO1 062102Z 17013KT 38/12 A2995 RMK A01 T03770120  RH  022%=      5-min Rain = 0
KLO1 062103Z 17012G18KT 38/12 A2995 RMK A01 T03770121  RH  022%=      5-min Rain = 0
KLO1 062104Z 16018KT 38/12 A2995 RMK A01 T03760119  RH  021%=      5-min Rain = 0
KLO1 062105Z 15016KT 38/11 A2995 RMK A01 T03750113  RH  021%=      5-min Rain = 0
KLO1 062106Z 15017KT 37/11 A2995 RMK A01 T03730113  RH  021%=      5-min Rain = 0
KLO1 062107Z 15016KT 37/11 A2995 RMK A01 T03730113  RH  021%=      5-min Rain = 0
KLO1 062108Z 15017G24KT 37/11 A2995 RMK A01 T03740112  RH  021%=      5-min Rain = 0
KLO1 062109Z 16018KT 38/11 A2995 RMK A01 T03750114  RH  021%=      5-min Rain = 0
KLO1 062110Z 16019KT 38/11 A2995 RMK A01 T03760112  RH  020%=      5-min Rain = 0
KLO1 062111Z 17017KT 38/11 A2995 RMK A01 T03750107  RH  020%=      5-min Rain = 0
KLO1 062112Z 16015G20KT 37/11 A2995 RMK A01 T03740107  RH  020%=      5-min Rain = 0
KLO1 062113Z 16011KT 37/11 A2995 RMK A01 T03730106  RH  020%=      5-min Rain = 0
KLO1 062114Z 16013KT 37/11 A2995 RMK A01 T03730109  RH  020%=      5-min Rain = 0
KLO1 062115Z 15012KT 37/11 A2995 RMK A01 T03740111  RH  021%=      5-min Rain = 0
KLO1 062116Z 16012G17KT 38/11 A2994 RMK A01 T03760109  RH  020%=      5-min Rain = 0
KLO1 062117Z 14018KT 38/11 A2994 RMK A01 T03760110  RH  020%=      5-min Rain = 0
KLO1 062118Z 15016KT 38/11 A2994 RMK A01 T03760114  RH  021%=      5-min Rain = 0
KLO1 062119Z 16015KT 38/12 A2994 RMK A01 T03760115  RH  021%=      5-min Rain = 0
KLO1 062120Z 15014KT 38/12 A2994 RMK A01 T03760118  RH  021%=      5-min Rain = 0
KLO1 062121Z 15017G26KT 38/12 A2994 RMK A01 T03780122  RH  022%=      5-min Rain = 0
KLO1 062122Z 16017KT 38/12 A2994 RMK A01 T03800121  RH  021%=      5-min Rain = 0
KLO1 062123Z 16013KT 38/12 A2994 RMK A01 T03760118  RH  021%=      5-min Rain = 0
KLO1 062124Z 15016KT 38/12 A2994 RMK A01 T03750118  RH  021%=      5-min Rain = 0
KLO1 062125Z 13014KT 38/12 A2994 RMK A01 T03750117  RH  021%=      5-min Rain = 0
KLO1 062126Z 14016G22KT 38/12 A2994 RMK A01 T03760116  RH  021%=      5-min Rain = 0
KLO1 062127Z 15020KT 38/12 A2994 RMK A01 T03770118  RH  021%=      5-min Rain = 0
KLO1 062128Z 15015KT 38/12 A2994 RMK A01 T03760121  RH  022%=      5-min Rain = 0
KLO1 062129Z 16016KT 38/12 A2994 RMK A01 T03760121  RH  022%=      5-min Rain = 0
KLO1 062130Z 16017KT 38/12 A2994 RMK A01 T03760120  RH  022%=      5-min Rain = 0
KLO1 062131Z 15013G18KT 38/12 A2994 RMK A01 T03750119  RH  022%=      5-min Rain = 0
KLO1 062132Z 15014KT 38/12 A2994 RMK A01 T03750118  RH  021%=      5-min Rain = 0
KLO1 062133Z 15015KT 38/12 A2994 RMK A01 T03750118  RH  021%=      5-min Rain = 0
KLO1 062134Z 15015KT 38/12 A2994 RMK A01 T03760118  RH  021%=      5-min Rain = 0
KLO1 062135Z 15016KT 38/12 A2994 RMK A01 T03780118  RH  021%=      5-min Rain = 0
KLO1 062136Z 16016KT 38/11 A2994 RMK A01 T03770112  RH  020%=      5-min Rain = 0
KLO1 062137Z 17014KT 38/11 A2994 RMK A01 T03760111  RH  020%=      5-min Rain = 0
KLO1 062138Z 18016KT 38/11 A2994 RMK A01 T03760111  RH  020%=      5-min Rain = 0
KLO1 062139Z 16013KT 38/11 A2994 RMK A01 T03760113  RH  021%=      5-min Rain = 0
KLO1 062140Z 16014KT 38/11 A2994 RMK A01 T03780112  RH  020%=      5-min Rain = 0
KLO1 062141Z 17014KT 38/11 A2994 RMK A01 T03790110  RH  020%=      5-min Rain = 0
KLO1 062142Z 17012KT 38/11 A2994 RMK A01 T03780109  RH  020%=      5-min Rain = 0
KLO1 062143Z 17011KT 38/11 A2994 RMK A01 T03790106  RH  019%=      5-min Rain = 0
KLO1 062144Z 15009KT 38/10 A2993 RMK A01 T03780103  RH  019%=      5-min Rain = 0
KLO1 062145Z 16011KT 38/11 A2994 RMK A01 T03770109  RH  020%=      5-min Rain = 0
KLO1 062146Z 17012KT 38/11 A2994 RMK A01 T03770114  RH  021%=      5-min Rain = 0
KLO1 062147Z 16013KT 38/11 A2993 RMK A01 T03770114  RH  021%=      5-min Rain = 0
KLO1 062148Z 16013KT 38/11 A2993 RMK A01 T03750108  RH  020%=      5-min Rain = 0
KLO1 062149Z 16012KT 37/11 A2993 RMK A01 T03740112  RH  021%=      5-min Rain = 0
KLO1 062150Z 15012G18KT 38/12 A2993 RMK A01 T03760118  RH  021%=      5-min Rain = 0
KLO1 062151Z 14016KT 38/12 A2993 RMK A01 T03800116  RH  021%=      5-min Rain = 0
KLO1 062152Z 14014KT 38/11 A2993 RMK A01 T03810114  RH  020%=      5-min Rain = 0
KLO1 062153Z 15011KT 38/12 A2993 RMK A01 T03810117  RH  021%=      5-min Rain = 0
KLO1 062154Z 15015KT 38/12 A2993 RMK A01 T03820119  RH  021%=      5-min Rain = 0
KLO1 062155Z 16016KT 38/11 A2993 RMK A01 T03820113  RH  020%=      5-min Rain = 0
KLO1 062156Z 17014KT 38/11 A2993 RMK A01 T03790114  RH  021%=      5-min Rain = 0
KLO1 062157Z 16013KT 38/12 A2993 RMK A01 T03770115  RH  021%=      5-min Rain = 0
KLO1 062158Z 15013KT 38/11 A2993 RMK A01 T03770114  RH  021%=      5-min Rain = 0
KLO1 062159Z 15013G19KT 38/11 A2993 RMK A01 T03770114  RH  021%=      5-min Rain = 0
KLO1 062200Z 15015KT 38/11 A2993 RMK A01 T03780113  RH  020%=      5-min Rain = 0
KLO1 062201Z 16014KT 38/11 A2993 RMK A01 T03780114  RH  021%=      5-min Rain = 0
KLO1 062202Z 17012KT 38/12 A2993 RMK A01 T03780115  RH  021%=      5-min Rain = 0
KLO1 062203Z 17013KT 38/11 A2993 RMK A01 T03760113  RH  021%=      5-min Rain = 0
KLO1 062204Z 17013KT 38/11 A2993 RMK A01 T03750112  RH  021%=      5-min Rain = 0
KLO1 062205Z 16014KT 38/12 A2993 RMK A01 T03750115  RH  021%=      5-min Rain = 0
KLO1 062206Z 16012KT 38/12 A2993 RMK A01 T03760117  RH  021%=      5-min Rain = 0
KLO1 062207Z 15015KT 38/11 A2993 RMK A01 T03760113  RH  021%=      5-min Rain = 0
KLO1 062208Z 14013KT 38/11 A2993 RMK A01 T03760110  RH  020%=      5-min Rain = 0
KLO1 062209Z 14012KT 38/11 A2993 RMK A01 T03750112  RH  021%=      5-min Rain = 0
KLO1 062210Z 15012KT 38/11 A2993 RMK A01 T03770112  RH  020%=      5-min Rain = 0
KLO1 062211Z 15013G19KT 38/11 A2993 RMK A01 T03770111  RH  020%=      5-min Rain = 0
KLO1 062212Z 15016KT 38/11 A2993 RMK A01 T03770112  RH  020%=      5-min Rain = 0
KLO1 062213Z 15017KT 38/11 A2993 RMK A01 T03770111  RH  020%=      5-min Rain = 0
KLO1 062214Z 15014KT 38/11 A2993 RMK A01 T03750108  RH  020%=      5-min Rain = 0
KLO1 062215Z 15015KT 37/11 A2993 RMK A01 T03740111  RH  021%=      5-min Rain = 0
KLO1 062216Z 15017G22KT 38/11 A2993 RMK A01 T03760111  RH  020%=      5-min Rain = 0
KLO1 062217Z 15016KT 38/11 A2993 RMK A01 T03760106  RH  020%=      5-min Rain = 0
KLO1 062218Z 15013KT 38/11 A2993 RMK A01 T03750107  RH  020%=      5-min Rain = 0
KLO1 062219Z 15018KT 38/11 A2993 RMK A01 T03750110  RH  020%=      5-min Rain = 0
KLO1 062220Z 14016KT 38/11 A2993 RMK A01 T03760114  RH  021%=      5-min Rain = 0
KLO1 062221Z 14015KT 38/11 A2993 RMK A01 T03750114  RH  021%=      5-min Rain = 0
KLO1 062222Z 15015KT 38/12 A2993 RMK A01 T03750115  RH  021%=      5-min Rain = 0
KLO1 062223Z 16016KT 38/11 A2992 RMK A01 T03750113  RH  021%=      5-min Rain = 0
KLO1 062224Z 17017KT 38/11 A2992 RMK A01 T03750114  RH  021%=      5-min Rain = 0
KLO1 062225Z 17016KT 38/11 A2992 RMK A01 T03750111  RH  021%=      5-min Rain = 0
KLO1 062226Z 18015KT 38/12 A2992 RMK A01 T03760115  RH  021%=      5-min Rain = 0
KLO1 062227Z 18012KT 38/12 A2992 RMK A01 T03760115  RH  021%=      5-min Rain = 0
KLO1 062228Z 17015KT 38/11 A2992 RMK A01 T03760113  RH  021%=      5-min Rain = 0
KLO1 062229Z 17013KT 38/11 A2992 RMK A01 T03760110  RH  020%=      5-min Rain = 0
KLO1 062230Z 17011KT 38/12 A2992 RMK A01 T03760115  RH  021%=      5-min Rain = 0
KLO1 062231Z 16014KT 38/12 A2992 RMK A01 T03760119  RH  021%=      5-min Rain = 0
KLO1 062232Z 18013KT 38/12 A2992 RMK A01 T03770120  RH  021%=      5-min Rain = 0
KLO1 062233Z 18014KT 38/12 A2992 RMK A01 T03760119  RH  021%=      5-min Rain = 0
KLO1 062234Z 18012KT 38/12 A2992 RMK A01 T03760117  RH  021%=      5-min Rain = 0
KLO1 062235Z 17009KT 38/12 A2992 RMK A01 T03760119  RH  022%=      5-min Rain = 0
KLO1 062236Z 17012KT 38/12 A2992 RMK A01 T03760117  RH  021%=      5-min Rain = 0
KLO1 062237Z 16014G20KT 38/12 A2992 RMK A01 T03750116  RH  021%=      5-min Rain = 0
KLO1 062238Z 16018KT 38/12 A2992 RMK A01 T03750115  RH  021%=      5-min Rain = 0
KLO1 062239Z 17017KT 38/11 A2992 RMK A01 T03750111  RH  020%=      5-min Rain = 0
KLO1 062240Z 16015KT 38/11 A2992 RMK A01 T03750113  RH  021%=      5-min Rain = 0
KLO1 062241Z 17015KT 37/11 A2992 RMK A01 T03740114  RH  021%=      5-min Rain = 0
KLO1 062242Z 17016KT 37/12 A2992 RMK A01 T03740115  RH  021%=      5-min Rain = 0
KLO1 062243Z 17016KT 37/11 A2992 RMK A01 T03740114  RH  021%=      5-min Rain = 0
KLO1 062244Z 17018KT 37/11 A2992 RMK A01 T03740113  RH  021%=      5-min Rain = 0
KLO1 062245Z 17015KT 37/11 A2992 RMK A01 T03740113  RH  021%=      5-min Rain = 0
KLO1 062246Z 17011KT 37/12 A2992 RMK A01 T03740117  RH  021%=      5-min Rain = 0
KLO1 062247Z 16016KT 38/12 A2992 RMK A01 T03750115  RH  021%=      5-min Rain = 0
KLO1 062248Z 18017KT 38/11 A2992 RMK A01 T03750114  RH  021%=      5-min Rain = 0
KLO1 062249Z 18016KT 37/11 A2992 RMK A01 T03740112  RH  021%=      5-min Rain = 0
KLO1 062250Z 18016KT 37/11 A2992 RMK A01 T03740110  RH  020%=      5-min Rain = 0
KLO1 062251Z 18013KT 37/11 A2992 RMK A01 T03740111  RH  020%=      5-min Rain = 0
KLO1 062252Z 17012KT 37/11 A2992 RMK A01 T03740110  RH  021%=      5-min Rain = 0
KLO1 062253Z 15013KT 37/12 A2992 RMK A01 T03730115  RH  021%=      5-min Rain = 0
KLO1 062254Z 17011KT 37/11 A2992 RMK A01 T03740113  RH  021%=      5-min Rain = 0
KLO1 062255Z 16012G17KT 37/11 A2992 RMK A01 T03740113  RH  021%=      5-min Rain = 0
KLO1 062256Z 15015KT 37/12 A2992 RMK A01 T03740116  RH  021%=      5-min Rain = 0
KLO1 062257Z 17014G20KT 37/11 A2992 RMK A01 T03730113  RH  021%=      5-min Rain = 0
KLO1 062258Z 17017KT 37/11 A2992 RMK A01 T03740114  RH  021%=      5-min Rain = 0
KLO1 062259Z 17016KT 37/12 A2992 RMK A01 T03730115  RH  021%=      5-min Rain = 0
KLO1 062300Z 16019KT 37/12 A2992 RMK A01 T03740116  RH  021%=      5-min Rain = 0
KLO1 062301Z 16016G21KT 37/11 A2992 RMK A01 T03740113  RH  021%=      5-min Rain = 0
KLO1 062302Z 16016KT 37/12 A2992 RMK A01 T03740115  RH  021%=      5-min Rain = 0
KLO1 062303Z 17014G20KT 37/11 A2992 RMK A01 T03730110  RH  021%=      5-min Rain = 0
KLO1 062304Z 16015KT 37/11 A2992 RMK A01 T03730114  RH  021%=      5-min Rain = 0
KLO1 062305Z 16012KT 37/11 A2992 RMK A01 T03730113  RH  021%=      5-min Rain = 0
KLO1 062306Z 17012KT 37/12 A2992 RMK A01 T03740115  RH  021%=      5-min Rain = 0
KLO1 062307Z 16017KT 37/12 A2992 RMK A01 T03740115  RH  021%=      5-min Rain = 0
KLO1 062308Z 16014KT 37/11 A2992 RMK A01 T03740114  RH  021%=      5-min Rain = 0
KLO1 062309Z 16016KT 37/11 A2992 RMK A01 T03730114  RH  021%=      5-min Rain = 0
KLO1 062310Z 15015KT 37/11 A2992 RMK A01 T03720112  RH  021%=      5-min Rain = 0
KLO1 062311Z 16013G18KT 37/11 A2992 RMK A01 T03710111  RH  021%=      5-min Rain = 0
KLO1 062312Z 16014KT 37/11 A2992 RMK A01 T03710113  RH  021%=      5-min Rain = 0
KLO1 062313Z 16014KT 37/11 A2992 RMK A01 T03710113  RH  021%=      5-min Rain = 0
KLO1 062314Z 17012KT 37/12 A2992 RMK A01 T03720116  RH  021%=      5-min Rain = 0
KLO1 062315Z 18011KT 37/11 A2992 RMK A01 T03720113  RH  021%=      5-min Rain = 0
KLO1 062316Z 17011KT 37/12 A2991 RMK A01 T03720115  RH  021%=      5-min Rain = 0
KLO1 062317Z 15015KT 37/12 A2991 RMK A01 T03720115  RH  021%=      5-min Rain = 0
KLO1 062318Z 16013KT 37/12 A2991 RMK A01 T03720115  RH  021%=      5-min Rain = 0
KLO1 062319Z 15012KT 37/11 A2991 RMK A01 T03720114  RH  021%=      5-min Rain = 0
KLO1 062320Z 16014KT 37/11 A2991 RMK A01 T03710114  RH  021%=      5-min Rain = 0
KLO1 062321Z 16016KT 37/12 A2991 RMK A01 T03720116  RH  022%=      5-min Rain = 0
KLO1 062322Z 17014KT 37/12 A2991 RMK A01 T03710115  RH  021%=      5-min Rain = 0
KLO1 062323Z 17017KT 37/12 A2991 RMK A01 T03710115  RH  021%=      5-min Rain = 0
KLO1 062324Z 17013KT 37/11 A2991 RMK A01 T03710114  RH  021%=      5-min Rain = 0
KLO1 062325Z 17016KT 37/11 A2991 RMK A01 T03710113  RH  021%=      5-min Rain = 0
KLO1 062326Z 17014KT 37/11 A2991 RMK A01 T03700110  RH  021%=      5-min Rain = 0
KLO1 062327Z 17014KT 37/11 A2991 RMK A01 T03700110  RH  021%=      5-min Rain = 0
KLO1 062328Z 16016KT 37/11 A2991 RMK A01 T03700113  RH  021%=      5-min Rain = 0
KLO1 062329Z 15015KT 37/12 A2991 RMK A01 T03700115  RH  022%=      5-min Rain = 0
KLO1 062330Z 14015KT 37/11 A2991 RMK A01 T03710113  RH  021%=      5-min Rain = 0
KLO1 062331Z 16015KT 37/11 A2991 RMK A01 T03710113  RH  021%=      5-min Rain = 0
KLO1 062332Z 16016KT 37/11 A2991 RMK A01 T03710112  RH  021%=      5-min Rain = 0
KLO1 062333Z 17013KT 37/11 A2991 RMK A01 T03700113  RH  021%=      5-min Rain = 0
KLO1 062334Z 16015KT 37/11 A2991 RMK A01 T03700114  RH  021%=      5-min Rain = 0
KLO1 062335Z 16014KT 37/11 A2991 RMK A01 T03700114  RH  021%=      5-min Rain = 0
KLO1 062336Z 17015KT 37/11 A2991 RMK A01 T03700114  RH  021%=      5-min Rain = 0
KLO1 062337Z 17018KT 37/11 A2991 RMK A01 T03710111  RH  021%=      5-min Rain = 0
KLO1 062338Z 17014KT 37/11 A2991 RMK A01 T03700111  RH  021%=      5-min Rain = 0
KLO1 062339Z 17015KT 37/11 A2991 RMK A01 T03690113  RH  021%=      5-min Rain = 0
KLO1 062340Z 17014KT 37/11 A2991 RMK A01 T03690113  RH  021%=      5-min Rain = 0
KLO1 062341Z 17014KT 37/11 A2991 RMK A01 T03690112  RH  021%=      5-min Rain = 0
KLO1 062342Z 17014KT 37/11 A2991 RMK A01 T03680111  RH  021%=      5-min Rain = 0
KLO1 062343Z 17015KT 37/11 A2991 RMK A01 T03680113  RH  021%=      5-min Rain = 0
KLO1 062344Z 17014KT 37/11 A2991 RMK A01 T03680114  RH  022%=      5-min Rain = 0
KLO1 062345Z 16016KT 37/12 A2991 RMK A01 T03680115  RH  022%=      5-min Rain = 0
KLO1 062346Z 16014KT 37/11 A2991 RMK A01 T03670114  RH  022%=      5-min Rain = 0
KLO1 062347Z 16011KT 37/12 A2991 RMK A01 T03660115  RH  022%=      5-min Rain = 0
KLO1 062348Z 16011KT 37/12 A2991 RMK A01 T03650117  RH  022%=      5-min Rain = 0
KLO1 062349Z 16011KT 37/12 A2991 RMK A01 T03650116  RH  022%=      5-min Rain = 0
KLO1 062350Z 16013KT 36/12 A2991 RMK A01 T03640116  RH  022%=      5-min Rain = 0
KLO1 062351Z 15013KT 36/12 A2991 RMK A01 T03640117  RH  023%=      5-min Rain = 0
KLO1 062352Z 15013KT 36/12 A2991 RMK A01 T03630116  RH  023%=      5-min Rain = 0
KLO1 062353Z 15017KT 36/12 A2991 RMK A01 T03630116  RH  023%=      5-min Rain = 0
KLO1 062354Z 15015KT 36/12 A2991 RMK A01 T03630115  RH  023%=      5-min Rain = 0
KLO1 062355Z 16014KT 36/12 A2991 RMK A01 T03620116  RH  023%=      5-min Rain = 0
KLO1 062356Z 17014KT 36/12 A2991 RMK A01 T03610119  RH  023%=      5-min Rain = 0
KLO1 062357Z 16014KT 36/12 A2991 RMK A01 T03590117  RH  023%=      5-min Rain = 0
KLO1 062358Z 16014KT 36/12 A2991 RMK A01 T03590116  RH  023%=      5-min Rain = 0
KLO1 062359Z 16011KT 36/12 A2991 RMK A01 T03590116  RH  023%=      5-min Rain = 0
KLO1 070000Z 16011KT 36/12 A2991 RMK A01 T03590116  RH  023%=      5-min Rain = 0
KLO1 070001Z 15012KT 36/12 A2991 RMK A01 T03590117  RH  023%=      5-min Rain = 0
KLO1 070002Z 16016KT 36/12 A2991 RMK A01 T03580117  RH  023%=      5-min Rain = 0
KLO1 070003Z 16016KT 36/12 A2991 RMK A01 T03580115  RH  023%=      5-min Rain = 0
KLO1 070004Z 16013KT 36/12 A2991 RMK A01 T03580115  RH  023%=      5-min Rain = 0
KLO1 070005Z 15011KT 36/12 A2991 RMK A01 T03580116  RH  023%=      5-min Rain = 0
KLO1 070006Z 16011KT 36/12 A2991 RMK A01 T03570117  RH  024%=      5-min Rain = 0
KLO1 070007Z 16014KT 36/12 A2991 RMK A01 T03570117  RH  023%=      5-min Rain = 0
KLO1 070008Z 17014KT 36/12 A2991 RMK A01 T03570116  RH  023%=      5-min Rain = 0
KLO1 070009Z 17013KT 36/12 A2991 RMK A01 T03570115  RH  023%=      5-min Rain = 0
KLO1 070010Z 17015KT 36/11 A2991 RMK A01 T03570114  RH  023%=      5-min Rain = 0
KLO1 070011Z 16013KT 36/12 A2991 RMK A01 T03570115  RH  023%=      5-min Rain = 0
KLO1 070012Z 17013G18KT 36/12 A2991 RMK A01 T03570116  RH  023%=      5-min Rain = 0
KLO1 070013Z 17014G19KT 36/12 A2991 RMK A01 T03570115  RH  023%=      5-min Rain = 0
KLO1 070014Z 17015G21KT 36/12 A2991 RMK A01 T03570115  RH  023%=      5-min Rain = 0
KLO1 070015Z 16018KT 36/11 A2991 RMK A01 T03570114  RH  023%=      5-min Rain = 0
KLO1 070016Z 17016KT 36/11 A2991 RMK A01 T03570114  RH  023%=      5-min Rain = 0
KLO1 070017Z 17013KT 36/12 A2992 RMK A01 T03570116  RH  023%=      5-min Rain = 0
KLO1 070018Z 17016KT 36/12 A2992 RMK A01 T03560116  RH  023%=      5-min Rain = 0
KLO1 070019Z 16014KT 36/12 A2992 RMK A01 T03560115  RH  023%=      5-min Rain = 0
KLO1 070020Z 16013KT 36/12 A2992 RMK A01 T03560116  RH  024%=      5-min Rain = 0
KLO1 070021Z 15013KT 36/12 A2992 RMK A01 T03560117  RH  024%=      5-min Rain = 0
KLO1 070022Z 16016KT 36/12 A2992 RMK A01 T03550116  RH  024%=      5-min Rain = 0
KLO1 070023Z 16017KT 36/12 A2992 RMK A01 T03550115  RH  023%=      5-min Rain = 0
KLO1 070024Z 16018KT 36/11 A2992 RMK A01 T03560114  RH  023%=      5-min Rain = 0
KLO1 070025Z 17014KT 36/12 A2992 RMK A01 T03560115  RH  023%=      5-min Rain = 0
KLO1 070026Z 16013KT 36/12 A2992 RMK A01 T03560116  RH  024%=      5-min Rain = 0
KLO1 070027Z 17016KT 36/12 A2992 RMK A01 T03550116  RH  024%=      5-min Rain = 0
KLO1 070028Z 16016KT 36/12 A2992 RMK A01 T03550116  RH  024%=      5-min Rain = 0
KLO1 070029Z 16014KT 36/12 A2992 RMK A01 T03550116  RH  024%=      5-min Rain = 0
KLO1 070030Z 16011KT 36/12 A2992 RMK A01 T03550118  RH  024%=      5-min Rain = 0
KLO1 070031Z 16015KT 35/12 A2992 RMK A01 T03540118  RH  024%=      5-min Rain = 0
KLO1 070032Z 16014KT 35/12 A2992 RMK A01 T03540117  RH  024%=      5-min Rain = 0
KLO1 070033Z 16014KT 35/12 A2992 RMK A01 T03540117  RH  024%=      5-min Rain = 0
KLO1 070034Z 16012KT 35/12 A2992 RMK A01 T03540119  RH  024%=      5-min Rain = 0
KLO1 070035Z 16016KT 35/12 A2992 RMK A01 T03530119  RH  024%=      5-min Rain = 0
KLO1 070036Z 16018KT 35/12 A2992 RMK A01 T03530116  RH  024%=      5-min Rain = 0
KLO1 070037Z 17017G22KT 35/12 A2992 RMK A01 T03540116  RH  024%=      5-min Rain = 0
KLO1 070038Z 17013KT 35/12 A2992 RMK A01 T03540117  RH  024%=      5-min Rain = 0
KLO1 070039Z 17012KT 35/12 A2992 RMK A01 T03540118  RH  024%=      5-min Rain = 0
KLO1 070040Z 17016KT 35/12 A2992 RMK A01 T03540116  RH  024%=      5-min Rain = 0
KLO1 070041Z 17013KT 35/12 A2992 RMK A01 T03540115  RH  024%=      5-min Rain = 0
KLO1 070042Z 17015KT 35/12 A2992 RMK A01 T03530115  RH  024%=      5-min Rain = 0
KLO1 070043Z 17016KT 35/12 A2992 RMK A01 T03540115  RH  024%=      5-min Rain = 0
KLO1 070044Z 17015KT 35/12 A2992 RMK A01 T03540115  RH  024%=      5-min Rain = 0
KLO1 070045Z 18017KT 35/12 A2992 RMK A01 T03540116  RH  024%=      5-min Rain = 0
KLO1 070046Z 18015KT 35/12 A2992 RMK A01 T03540116  RH  024%=      5-min Rain = 0
KLO1 070047Z 18015KT 35/12 A2993 RMK A01 T03540116  RH  024%=      5-min Rain = 0
KLO1 070048Z 18015KT 35/12 A2993 RMK A01 T03530116  RH  024%=      5-min Rain = 0
KLO1 070049Z 18015KT 35/12 A2993 RMK A01 T03530117  RH  024%=      5-min Rain = 0
KLO1 070050Z 17016KT 35/12 A2993 RMK A01 T03530117  RH  024%=      5-min Rain = 0
KLO1 070051Z 16013KT 35/12 A2993 RMK A01 T03530117  RH  024%=      5-min Rain = 0
KLO1 070052Z 16012KT 35/12 A2993 RMK A01 T03530118  RH  024%=      5-min Rain = 0
KLO1 070053Z 16012KT 35/12 A2993 RMK A01 T03530119  RH  024%=      5-min Rain = 0
KLO1 070054Z 16013KT 35/12 A2993 RMK A01 T03520118  RH  024%=      5-min Rain = 0
KLO1 070055Z 16014KT 35/12 A2993 RMK A01 T03510117  RH  024%=      5-min Rain = 0
KLO1 070056Z 17012KT 35/12 A2993 RMK A01 T03510117  RH  024%=      5-min Rain = 0
KLO1 070057Z 15011KT 35/12 A2993 RMK A01 T03510117  RH  024%=      5-min Rain = 0
KLO1 070058Z 15013G18KT 35/12 A2993 RMK A01 T03500118  RH  025%=      5-min Rain = 0
KLO1 070059Z 15013KT 35/12 A2993 RMK A01 T03500117  RH  024%=      5-min Rain = 0
KLO1 070100Z 16013KT 35/12 A2993 RMK A01 T03500116  RH  024%=      5-min Rain = 0
KLO1 070101Z 16013KT 35/12 A2993 RMK A01 T03500116  RH  024%=      5-min Rain = 0
KLO1 070102Z 16011KT 35/12 A2993 RMK A01 T03500117  RH  024%=      5-min Rain = 0
KLO1 070103Z 16014KT 35/12 A2993 RMK A01 T03500117  RH  024%=      5-min Rain = 0
KLO1 070104Z 16012KT 35/12 A2993 RMK A01 T03500117  RH  024%=      5-min Rain = 0
KLO1 070105Z 16013KT 35/12 A2993 RMK A01 T03500118  RH  025%=      5-min Rain = 0
KLO1 070106Z 16013KT 35/12 A2994 RMK A01 T03490116  RH  024%=      5-min Rain = 0
KLO1 070107Z 16014KT 35/12 A2994 RMK A01 T03500117  RH  024%=      5-min Rain = 0
KLO1 070108Z 16011KT 35/12 A2994 RMK A01 T03490117  RH  024%=      5-min Rain = 0
KLO1 070109Z 15012KT 35/12 A2994 RMK A01 T03490118  RH  025%=      5-min Rain = 0
KLO1 070110Z 15014KT 35/12 A2994 RMK A01 T03490118  RH  025%=      5-min Rain = 0
KLO1 070111Z 15012KT 35/12 A2994 RMK A01 T03490117  RH  025%=      5-min Rain = 0
KLO1 070112Z 15013KT 35/12 A2994 RMK A01 T03490117  RH  025%=      5-min Rain = 0
KLO1 070113Z 15012KT 35/12 A2994 RMK A01 T03490118  RH  025%=      5-min Rain = 0
KLO1 070114Z 15012KT 35/12 A2994 RMK A01 T03490118  RH  025%=      5-min Rain = 0
KLO1 070115Z 15012KT 35/12 A2994 RMK A01 T03490118  RH  025%=      5-min Rain = 0
KLO1 070116Z 15012KT 35/12 A2994 RMK A01 T03480118  RH  025%=      5-min Rain = 0
KLO1 070117Z 15013KT 35/12 A2994 RMK A01 T03480118  RH  025%=      5-min Rain = 0
KLO1 070118Z 16012KT 35/12 A2994 RMK A01 T03480118  RH  025%=      5-min Rain = 0
KLO1 070119Z 16012KT 35/12 A2994 RMK A01 T03480119  RH  025%=      5-min Rain = 0
KLO1 070120Z 16011KT 35/12 A2994 RMK A01 T03480118  RH  025%=      5-min Rain = 0
KLO1 070121Z 16011KT 35/12 A2994 RMK A01 T03470119  RH  025%=      5-min Rain = 0
KLO1 070122Z 16010KT 35/12 A2994 RMK A01 T03470119  RH  025%=      5-min Rain = 0
KLO1 070123Z 16013KT 35/12 A2994 RMK A01 T03460116  RH  025%=      5-min Rain = 0
KLO1 070124Z 16012KT 35/12 A2994 RMK A01 T03460116  RH  025%=      5-min Rain = 0
KLO1 070125Z 16011KT 35/12 A2994 RMK A01 T03460116  RH  025%=      5-min Rain = 0
KLO1 070126Z 16012KT 35/12 A2994 RMK A01 T03460117  RH  025%=      5-min Rain = 0
KLO1 070127Z 16012KT 35/12 A2994 RMK A01 T03460115  RH  025%=      5-min Rain = 0
KLO1 070128Z 16010KT 35/12 A2994 RMK A01 T03460116  RH  025%=      5-min Rain = 0
KLO1 070129Z 17012KT 35/12 A2994 RMK A01 T03450116  RH  025%=      5-min Rain = 0
KLO1 070130Z 16012KT 35/12 A2994 RMK A01 T03450116  RH  025%=      5-min Rain = 0
KLO1 070131Z 16012KT 35/12 A2994 RMK A01 T03450115  RH  025%=      5-min Rain = 0
KLO1 070132Z 17012KT 35/11 A2994 RMK A01 T03450114  RH  025%=      5-min Rain = 0
KLO1 070133Z 16014KT 35/12 A2995 RMK A01 T03450115  RH  025%=      5-min Rain = 0
KLO1 070134Z 16013KT 35/12 A2995 RMK A01 T03460115  RH  025%=      5-min Rain = 0
KLO1 070135Z 16014KT 35/12 A2995 RMK A01 T03460116  RH  025%=      5-min Rain = 0
KLO1 070136Z 16013KT 35/12 A2995 RMK A01 T03460116  RH  025%=      5-min Rain = 0
KLO1 070137Z 16012KT 35/12 A2995 RMK A01 T03460116  RH  025%=      5-min Rain = 0
KLO1 070138Z 16010KT 35/12 A2995 RMK A01 T03460116  RH  025%=      5-min Rain = 0
KLO1 070139Z 16013G19KT 34/12 A2995 RMK A01 T03440117  RH  025%=      5-min Rain = 0
KLO1 070140Z 16012KT 34/12 A2995 RMK A01 T03440117  RH  025%=      5-min Rain = 0
KLO1 070141Z 16012KT 34/12 A2995 RMK A01 T03440117  RH  025%=      5-min Rain = 0
KLO1 070142Z 16012KT 34/12 A2995 RMK A01 T03440117  RH  025%=      5-min Rain = 0
KLO1 070143Z 16013KT 34/12 A2995 RMK A01 T03430117  RH  025%=      5-min Rain = 0
KLO1 070144Z 17010KT 34/12 A2995 RMK A01 T03430117  RH  025%=      5-min Rain = 0
KLO1 070145Z 16011KT 34/12 A2995 RMK A01 T03430117  RH  025%=      5-min Rain = 0
KLO1 070146Z 16011KT 34/12 A2995 RMK A01 T03420117  RH  025%=      5-min Rain = 0
KLO1 070147Z 16010KT 34/12 A2995 RMK A01 T03420116  RH  025%=      5-min Rain = 0
KLO1 070148Z 16012KT 34/12 A2995 RMK A01 T03410116  RH  025%=      5-min Rain = 0
KLO1 070149Z 16010KT 34/12 A2995 RMK A01 T03410116  RH  025%=      5-min Rain = 0
KLO1 070150Z 16011KT 34/12 A2995 RMK A01 T03410117  RH  026%=      5-min Rain = 0
KLO1 070151Z 16011KT 34/12 A2995 RMK A01 T03410117  RH  026%=      5-min Rain = 0
KLO1 070152Z 16009KT 34/12 A2995 RMK A01 T03400118  RH  026%=      5-min Rain = 0
KLO1 070153Z 16011KT 34/12 A2995 RMK A01 T03390118  RH  026%=      5-min Rain = 0
KLO1 070154Z 16013G18KT 34/12 A2995 RMK A01 T03380117  RH  026%=      5-min Rain = 0
KLO1 070155Z 16010KT 34/12 A2995 RMK A01 T03390118  RH  026%=      5-min Rain = 0
KLO1 070156Z 16012KT 34/12 A2995 RMK A01 T03390118  RH  026%=      5-min Rain = 0
KLO1 070157Z 16013KT 34/12 A2995 RMK A01 T03390118  RH  026%=      5-min Rain = 0
KLO1 070158Z 16012KT 34/12 A2995 RMK A01 T03390118  RH  026%=      5-min Rain = 0
KLO1 070159Z 16011KT 34/12 A2996 RMK A01 T03390118  RH  026%=      5-min Rain = 0
KLO1 070200Z 16010KT 34/12 A2996 RMK A01 T03380119  RH  026%=      5-min Rain = 0
KLO1 070201Z 16011KT 34/12 A2996 RMK A01 T03380119  RH  027%=      5-min Rain = 0
KLO1 070202Z 16012KT 34/12 A2996 RMK A01 T03370119  RH  027%=      5-min Rain = 0
KLO1 070203Z 16012KT 34/12 A2996 RMK A01 T03370119  RH  027%=      5-min Rain = 0
KLO1 070204Z 16011KT 34/12 A2996 RMK A01 T03370119  RH  027%=      5-min Rain = 0
KLO1 070205Z 16010KT 34/12 A2996 RMK A01 T03360120  RH  027%=      5-min Rain = 0
KLO1 070206Z 16011KT 34/12 A2996 RMK A01 T03360120  RH  027%=      5-min Rain = 0
KLO1 070207Z 16011KT 34/12 A2996 RMK A01 T03350120  RH  027%=      5-min Rain = 0
KLO1 070208Z 16010KT 34/12 A2996 RMK A01 T03350120  RH  027%=      5-min Rain = 0
KLO1 070209Z 16010KT 33/12 A2996 RMK A01 T03340120  RH  027%=      5-min Rain = 0
KLO1 070210Z 16010KT 33/12 A2996 RMK A01 T03340121  RH  027%=      5-min Rain = 0
KLO1 070211Z 16011KT 33/12 A2996 RMK A01 T03330121  RH  027%=      5-min Rain = 0
KLO1 070212Z 17010KT 33/12 A2996 RMK A01 T03330120  RH  027%=      5-min Rain = 0
KLO1 070213Z 16010KT 33/12 A2996 RMK A01 T03330120  RH  027%=      5-min Rain = 0
KLO1 070214Z 16012KT 33/12 A2996 RMK A01 T03330120  RH  027%=      5-min Rain = 0
KLO1 070215Z 17010G15KT 33/12 A2996 RMK A01 T03330120  RH  027%=      5-min Rain = 0
KLO1 070216Z 16011KT 33/12 A2996 RMK A01 T03330120  RH  027%=      5-min Rain = 0
KLO1 070217Z 16010KT 33/12 A2996 RMK A01 T03330119  RH  027%=      5-min Rain = 0
KLO1 070218Z 17009KT 33/12 A2996 RMK A01 T03330119  RH  027%=      5-min Rain = 0
KLO1 070219Z 16010KT 33/12 A2996 RMK A01 T03320119  RH  027%=      5-min Rain = 0
KLO1 070220Z 16009KT 33/12 A2996 RMK A01 T03320119  RH  027%=      5-min Rain = 0
KLO1 070221Z 17009KT 33/12 A2996 RMK A01 T03310119  RH  028%=      5-min Rain = 0
KLO1 070222Z 16010KT 33/12 A2996 RMK A01 T03310119  RH  028%=      5-min Rain = 0
KLO1 070223Z 16010KT 33/12 A2996 RMK A01 T03310119  RH  028%=      5-min Rain = 0
KLO1 070224Z 16009KT 33/12 A2996 RMK A01 T03310119  RH  028%=      5-min Rain = 0
KLO1 070225Z 17010KT 33/12 A2996 RMK A01 T03300119  RH  028%=      5-min Rain = 0
KLO1 070226Z 16010KT 33/12 A2996 RMK A01 T03300119  RH  028%=      5-min Rain = 0
KLO1 070227Z 16010KT 33/12 A2996 RMK A01 T03300119  RH  028%=      5-min Rain = 0
KLO1 070228Z 16010KT 33/12 A2996 RMK A01 T03290119  RH  028%=      5-min Rain = 0
KLO1 070229Z 17009KT 33/12 A2997 RMK A01 T03290119  RH  028%=      5-min Rain = 0
KLO1 070230Z 17011KT 33/12 A2997 RMK A01 T03290119  RH  028%=      5-min Rain = 0
KLO1 070231Z 17010KT 33/12 A2997 RMK A01 T03300119  RH  028%=      5-min Rain = 0
KLO1 070232Z 16010KT 33/12 A2997 RMK A01 T03290119  RH  028%=      5-min Rain = 0
KLO1 070233Z 16011KT 33/12 A2997 RMK A01 T03290119  RH  028%=      5-min Rain = 0
KLO1 070234Z 16010KT 33/12 A2997 RMK A01 T03290119  RH  028%=      5-min Rain = 0
KLO1 070235Z 16009KT 33/12 A2997 RMK A01 T03290119  RH  028%=      5-min Rain = 0
KLO1 070236Z 17010KT 33/12 A2997 RMK A01 T03280119  RH  028%=      5-min Rain = 0
KLO1 070237Z 17009KT 33/12 A2997 RMK A01 T03270119  RH  028%=      5-min Rain = 0
KLO1 070238Z 16008KT 33/12 A2997 RMK A01 T03270119  RH  028%=      5-min Rain = 0
KLO1 070239Z 17009KT 33/12 A2997 RMK A01 T03270119  RH  028%=      5-min Rain = 0
KLO1 070240Z 16010KT 33/12 A2997 RMK A01 T03260119  RH  028%=      5-min Rain = 0
KLO1 070241Z 16009KT 33/12 A2997 RMK A01 T03260120  RH  028%=      5-min Rain = 0
KLO1 070242Z 17010KT 33/12 A2997 RMK A01 T03260120  RH  028%=      5-min Rain = 0
KLO1 070243Z 16009KT 33/12 A2997 RMK A01 T03260120  RH  028%=      5-min Rain = 0
KLO1 070244Z 17010KT 33/12 A2997 RMK A01 T03260120  RH  028%=      5-min Rain = 0
KLO1 070245Z 16010KT 33/12 A2997 RMK A01 T03250120  RH  029%=      5-min Rain = 0
KLO1 070246Z 17010KT 33/12 A2997 RMK A01 T03250119  RH  029%=      5-min Rain = 0
KLO1 070247Z 17009KT 33/12 A2997 RMK A01 T03250120  RH  029%=      5-min Rain = 0
KLO1 070248Z 17011KT 33/12 A2997 RMK A01 T03250120  RH  029%=      5-min Rain = 0
KLO1 070249Z 17009KT 33/12 A2998 RMK A01 T03250120  RH  029%=      5-min Rain = 0
KLO1 070250Z 17010KT 33/12 A2998 RMK A01 T03250120  RH  029%=      5-min Rain = 0
KLO1 070251Z 17009KT 33/12 A2998 RMK A01 T03250120  RH  029%=      5-min Rain = 0
KLO1 070252Z 17008KT 33/12 A2998 RMK A01 T03250120  RH  029%=      5-min Rain = 0
KLO1 070253Z 17008KT 32/12 A2998 RMK A01 T03240120  RH  029%=      5-min Rain = 0
KLO1 070254Z 17009KT 32/12 A2998 RMK A01 T03240120  RH  029%=      5-min Rain = 0
KLO1 070255Z 17009KT 32/12 A2998 RMK A01 T03230120  RH  029%=      5-min Rain = 0
KLO1 070256Z 17010KT 32/12 A2998 RMK A01 T03230120  RH  029%=      5-min Rain = 0
KLO1 070257Z 17009KT 32/12 A2998 RMK A01 T03240120  RH  029%=      5-min Rain = 0
KLO1 070258Z 17008KT 32/12 A2998 RMK A01 T03240120  RH  029%=      5-min Rain = 0
KLO1 070259Z 17008KT 32/12 A2998 RMK A01 T03240121  RH  029%=      5-min Rain = 0
KLO1 070300Z 17008KT 32/12 A2998 RMK A01 T03230120  RH  029%=      5-min Rain = 0
KLO1 070301Z 17007KT 32/12 A2998 RMK A01 T03230121  RH  029%=      5-min Rain = 0
KLO1 070302Z 17009KT 32/12 A2998 RMK A01 T03220120  RH  029%=      5-min Rain = 0
KLO1 070303Z 17009KT 32/12 A2999 RMK A01 T03220121  RH  029%=      5-min Rain = 0
KLO1 070304Z 17008KT 32/12 A2999 RMK A01 T03220121  RH  029%=      5-min Rain = 0
KLO1 070305Z 17008KT 32/12 A2999 RMK A01 T03210121  RH  029%=      5-min Rain = 0
KLO1 070306Z 17008KT 32/12 A2999 RMK A01 T03210121  RH  029%=      5-min Rain = 0
KLO1 070307Z 17008KT 32/12 A2999 RMK A01 T03210121  RH  030%=      5-min Rain = 0
KLO1 070308Z 17008KT 32/12 A2999 RMK A01 T03210121  RH  030%=      5-min Rain = 0
KLO1 070309Z 17007KT 32/12 A2999 RMK A01 T03210121  RH  030%=      5-min Rain = 0
KLO1 070310Z 17008KT 32/12 A2999 RMK A01 T03200121  RH  030%=      5-min Rain = 0
KLO1 070311Z 17008KT 32/12 A2999 RMK A01 T03200121  RH  030%=      5-min Rain = 0
KLO1 070312Z 17009KT 32/12 A2999 RMK A01 T03200121  RH  030%=      5-min Rain = 0
KLO1 070313Z 17009KT 32/12 A2999 RMK A01 T03200122  RH  030%=      5-min Rain = 0
KLO1 070314Z 17008KT 32/12 A2999 RMK A01 T03200121  RH  030%=      5-min Rain = 0
KLO1 070315Z 17007KT 32/12 A2999 RMK A01 T03200122  RH  030%=      5-min Rain = 0
KLO1 070316Z 17008KT 32/12 A2999 RMK A01 T03190122  RH  030%=      5-min Rain = 0
KLO1 070317Z 17008KT 32/12 A2999 RMK A01 T03190122  RH  030%=      5-min Rain = 0
KLO1 070318Z 18008KT 32/12 A2999 RMK A01 T03200122  RH  030%=      5-min Rain = 0
KLO1 070319Z 18008KT 32/12 A2999 RMK A01 T03190122  RH  030%=      5-min Rain = 0
KLO1 070320Z 18009KT 32/12 A2999 RMK A01 T03190122  RH  030%=      5-min Rain = 0
KLO1 070321Z 17009KT 32/12 A2999 RMK A01 T03190122  RH  030%=      5-min Rain = 0
KLO1 070322Z 17009KT 32/12 A30 RMK A01 T03190122  RH  030%=      5-min Rain = 0
KLO1 070323Z 18008KT 32/12 A30 RMK A01 T03190123  RH  030%=      5-min Rain = 0
KLO1 070324Z 17008KT 32/12 A30 RMK A01 T03190123  RH  030%=      5-min Rain = 0
KLO1 070325Z 18008KT 32/12 A30 RMK A01 T03180124  RH  030%=      5-min Rain = 0
KLO1 070326Z 17009KT 32/12 A30 RMK A01 T03180124  RH  031%=      5-min Rain = 0
KLO1 070327Z 17009KT 32/12 A30 RMK A01 T03170124  RH  031%=      5-min Rain = 0
KLO1 070328Z 18008KT 32/12 A30 RMK A01 T03170123  RH  031%=      5-min Rain = 0
KLO1 070329Z 17009KT 32/12 A30 RMK A01 T03170124  RH  031%=      5-min Rain = 0
KLO1 070330Z 18009KT 32/12 A30 RMK A01 T03170124  RH  031%=      5-min Rain = 0
KLO1 070331Z 18008KT 32/12 A30 RMK A01 T03170124  RH  031%=      5-min Rain = 0
KLO1 070332Z 18007KT 32/13 A30 RMK A01 T03170125  RH  031%=      5-min Rain = 0
KLO1 070333Z 18008KT 32/13 A30 RMK A01 T03160125  RH  031%=      5-min Rain = 0
KLO1 070334Z 18008KT 32/13 A30 RMK A01 T03150125  RH  031%=      5-min Rain = 0
KLO1 070335Z 18008KT 32/13 A30 RMK A01 T03150125  RH  031%=      5-min Rain = 0
KLO1 070336Z 18008KT 32/13 A30 RMK A01 T03150126  RH  032%=      5-min Rain = 0
KLO1 070337Z 18008KT 31/13 A30 RMK A01 T03140126  RH  032%=      5-min Rain = 0
KLO1 070338Z 18008KT 31/13 A30 RMK A01 T03140126  RH  032%=      5-min Rain = 0
KLO1 070339Z 18008KT 31/13 A30 RMK A01 T03140127  RH  032%=      5-min Rain = 0
KLO1 070340Z 18008KT 31/13 A30 RMK A01 T03130127  RH  032%=      5-min Rain = 0
KLO1 070341Z 18008KT 31/13 A30 RMK A01 T03130127  RH  032%=      5-min Rain = 0
KLO1 070342Z 18008KT 31/13 A30 RMK A01 T03130127  RH  032%=      5-min Rain = 0
KLO1 070343Z 18008KT 31/13 A30 RMK A01 T03130127  RH  032%=      5-min Rain = 0
KLO1 070344Z 18008KT 31/13 A30 RMK A01 T03130127  RH  032%=      5-min Rain = 0
KLO1 070345Z 18008KT 31/13 A30 RMK A01 T03120127  RH  032%=      5-min Rain = 0
KLO1 070346Z 18008KT 31/13 A30 RMK A01 T03120128  RH  032%=      5-min Rain = 0
KLO1 070347Z 18008KT 31/13 A30 RMK A01 T03120128  RH  032%=      5-min Rain = 0
KLO1 070348Z 18008KT 31/13 A30 RMK A01 T03120128  RH  033%=      5-min Rain = 0
KLO1 070349Z 18008KT 31/13 A30 RMK A01 T03110128  RH  033%=      5-min Rain = 0
KLO1 070350Z 19008KT 31/13 A30 RMK A01 T03110128  RH  033%=      5-min Rain = 0
KLO1 070351Z 18008KT 31/13 A30 RMK A01 T03110129  RH  033%=      5-min Rain = 0
KLO1 070352Z 18008KT 31/13 A30 RMK A01 T03100129  RH  033%=      5-min Rain = 0
KLO1 070353Z 18008KT 31/13 A30 RMK A01 T03090129  RH  033%=      5-min Rain = 0
KLO1 070354Z 18008KT 31/13 A30 RMK A01 T03100129  RH  033%=      5-min Rain = 0
KLO1 070355Z 18008KT 31/13 A30 RMK A01 T03100129  RH  033%=      5-min Rain = 0
KLO1 070356Z 18008KT 31/13 A3001 RMK A01 T03100130  RH  033%=      5-min Rain = 0
KLO1 070357Z 18008KT 31/13 A3001 RMK A01 T03090130  RH  033%=      5-min Rain = 0
KLO1 070358Z 18008KT 31/13 A3001 RMK A01 T03090130  RH  034%=      5-min Rain = 0
KLO1 070359Z 18008KT 31/13 A3001 RMK A01 T03090130  RH  034%=      5-min Rain = 0
KLO1 070400Z 18008KT 31/13 A3001 RMK A01 T03090130  RH  034%=      5-min Rain = 0
KLO1 070401Z 17008KT 31/13 A3001 RMK A01 T03090130  RH  034%=      5-min Rain = 0
KLO1 070402Z 17008KT 31/13 A3001 RMK A01 T03090131  RH  034%=      5-min Rain = 0
KLO1 070403Z 18007KT 31/13 A3001 RMK A01 T03090130  RH  034%=      5-min Rain = 0
KLO1 070404Z 18008KT 31/13 A3001 RMK A01 T03090130  RH  034%=      5-min Rain = 0
KLO1 070405Z 18008KT 31/13 A3001 RMK A01 T03090130  RH  033%=      5-min Rain = 0
KLO1 070406Z 18009KT 31/13 A3001 RMK A01 T03090129  RH  033%=      5-min Rain = 0
KLO1 070407Z 18008KT 31/13 A3001 RMK A01 T03090129  RH  033%=      5-min Rain = 0
KLO1 070408Z 18008KT 31/13 A3001 RMK A01 T03100130  RH  033%=      5-min Rain = 0
KLO1 070409Z 17008KT 31/13 A3001 RMK A01 T03100130  RH  033%=      5-min Rain = 0
KLO1 070410Z 18008KT 31/13 A3001 RMK A01 T03100130  RH  033%=      5-min Rain = 0
KLO1 070411Z 18008KT 31/13 A3001 RMK A01 T03090129  RH  033%=      5-min Rain = 0
KLO1 070412Z 17008KT 31/13 A3001 RMK A01 T03100130  RH  033%=      5-min Rain = 0
KLO1 070413Z 17010KT 31/13 A3001 RMK A01 T03100130  RH  033%=      5-min Rain = 0
KLO1 070414Z 18009KT 31/13 A3001 RMK A01 T03100130  RH  033%=      5-min Rain = 0
KLO1 070415Z 17009KT 31/13 A3001 RMK A01 T03090130  RH  033%=      5-min Rain = 0
KLO1 070416Z 18008KT 31/13 A3001 RMK A01 T03100130  RH  033%=      5-min Rain = 0
KLO1 070417Z 17009KT 31/13 A3001 RMK A01 T03100130  RH  033%=      5-min Rain = 0
KLO1 070418Z 17009KT 31/13 A3001 RMK A01 T03100130  RH  033%=      5-min Rain = 0
KLO1 070419Z 17009KT 31/13 A3001 RMK A01 T03100130  RH  033%=      5-min Rain = 0
KLO1 070420Z 17009KT 31/13 A3001 RMK A01 T03100130  RH  033%=      5-min Rain = 0
KLO1 070421Z 17009KT 31/13 A30 RMK A01 T03090131  RH  034%=      5-min Rain = 0
KLO1 070422Z 17009KT 31/13 A30 RMK A01 T03090130  RH  034%=      5-min Rain = 0
KLO1 070423Z 17009KT 31/13 A30 RMK A01 T03090131  RH  034%=      5-min Rain = 0
KLO1 070424Z 17009KT 31/13 A30 RMK A01 T03080130  RH  034%=      5-min Rain = 0
KLO1 070425Z 17010KT 31/13 A30 RMK A01 T03080130  RH  034%=      5-min Rain = 0
KLO1 070426Z 17010KT 31/13 A30 RMK A01 T03080130  RH  034%=      5-min Rain = 0
KLO1 070427Z 17010KT 31/13 A30 RMK A01 T03080131  RH  034%=      5-min Rain = 0
KLO1 070428Z 17010KT 31/13 A30 RMK A01 T03090131  RH  034%=      5-min Rain = 0
KLO1 070429Z 17010KT 31/13 A30 RMK A01 T03090131  RH  034%=      5-min Rain = 0
KLO1 070430Z 17011KT 31/13 A30 RMK A01 T03090131  RH  034%=      5-min Rain = 0
KLO1 070431Z 16010KT 31/13 A30 RMK A01 T03080131  RH  034%=      5-min Rain = 0
KLO1 070432Z 17010KT 31/13 A30 RMK A01 T03080132  RH  034%=      5-min Rain = 0
KLO1 070433Z 17010KT 31/13 A30 RMK A01 T03080132  RH  034%=      5-min Rain = 0
KLO1 070434Z 17010KT 31/13 A30 RMK A01 T03080132  RH  034%=      5-min Rain = 0
KLO1 070435Z 17011KT 31/13 A30 RMK A01 T03080132  RH  034%=      5-min Rain = 0
KLO1 070436Z 17011KT 31/13 A30 RMK A01 T03080132  RH  034%=      5-min Rain = 0
KLO1 070437Z 17010KT 31/13 A30 RMK A01 T03080133  RH  034%=      5-min Rain = 0
KLO1 070438Z 17010KT 31/13 A30 RMK A01 T03080133  RH  034%=      5-min Rain = 0
KLO1 070439Z 17010KT 31/13 A30 RMK A01 T03080133  RH  034%=      5-min Rain = 0
KLO1 070440Z 17011KT 31/13 A30 RMK A01 T03080133  RH  034%=      5-min Rain = 0
KLO1 070441Z 16010KT 31/13 A30 RMK A01 T03080133  RH  034%=      5-min Rain = 0
KLO1 070442Z 17010KT 31/13 A30 RMK A01 T03070133  RH  035%=      5-min Rain = 0
KLO1 070443Z 17009KT 31/13 A3001 RMK A01 T03070133  RH  035%=      5-min Rain = 0
KLO1 070444Z 17010KT 31/13 A30 RMK A01 T03070134  RH  035%=      5-min Rain = 0
KLO1 070445Z 17010KT 31/13 A30 RMK A01 T03070134  RH  035%=      5-min Rain = 0
KLO1 070446Z 17009KT 31/13 A30 RMK A01 T03070134  RH  035%=      5-min Rain = 0
KLO1 070447Z 17010KT 31/13 A30 RMK A01 T03070134  RH  035%=      5-min Rain = 0
KLO1 070448Z 17009KT 31/13 A30 RMK A01 T03070134  RH  035%=      5-min Rain = 0
KLO1 070449Z 17012KT 31/13 A30 RMK A01 T03060134  RH  035%=      5-min Rain = 0
KLO1 070450Z 17009KT 31/13 A30 RMK A01 T03070134  RH  035%=      5-min Rain = 0
KLO1 070451Z 17009KT 31/13 A30 RMK A01 T03060134  RH  035%=      5-min Rain = 0
KLO1 070452Z 17011KT 31/13 A30 RMK A01 T03060134  RH  035%=      5-min Rain = 0
KLO1 070453Z 17011KT 31/13 A30 RMK A01 T03060134  RH  035%=      5-min Rain = 0
KLO1 070454Z 17010KT 31/13 A30 RMK A01 T03060134  RH  035%=      5-min Rain = 0
KLO1 070455Z 17011KT 31/13 A30 RMK A01 T03060134  RH  035%=      5-min Rain = 0
KLO1 070456Z 17009KT 31/14 A30 RMK A01 T03060135  RH  035%=      5-min Rain = 0
KLO1 070457Z 17011KT 31/14 A30 RMK A01 T03060135  RH  035%=      5-min Rain = 0
KLO1 070458Z 17011KT 31/14 A30 RMK A01 T03060135  RH  035%=      5-min Rain = 0
KLO1 070459Z 17011KT 31/14 A30 RMK A01 T03060135  RH  035%=      5-min Rain = 0

Page generated in 0.1788 seconds.